Wetterdaten: Freitag, 03.04.2015
Datum Zeit Temp. Aussen +5cm Feuchte Auss Luftdruck Regen Sonnenschein Regendauer Solar Windben
03.04.2015 00:00 3,4 C 1,7 C 85 % 1022,6 hPa 0,0 l/m 0 min 0 min 0 W/m 6,3 km/h (2 Bft)
03.04.2015 00:02 3,4 C 1,7 C 85 % 1022,7 hPa 0,0 l/m 0 min 0 min 0 W/m 6,3 km/h (2 Bft)
03.04.2015 00:06 3,3 C 1,1 C 85 % 1022,6 hPa 0,0 l/m 0 min 0 min 0 W/m 6,3 km/h (2 Bft)
03.04.2015 00:08 3,3 C 1,1 C 85 % 1022,6 hPa 0,0 l/m 0 min 0 min 0 W/m 6,3 km/h (2 Bft)
03.04.2015 00:10 3,3 C 1,1 C 85 % 1022,7 hPa 0,0 l/m 0 min 0 min 0 W/m 4,2 km/h (1 Bft)
03.04.2015 00:12 3,2 C 1,1 C 85 % 1022,7 hPa 0,0 l/m 0 min 0 min 0 W/m 4,2 km/h (1 Bft)
03.04.2015 00:14 3,2 C 1,1 C 85 % 1022,7 hPa 0,0 l/m 0 min 0 min 0 W/m 4,2 km/h (1 Bft)
03.04.2015 00:16 3,2 C 1,1 C 85 % 1022,7 hPa 0,0 l/m 0 min 0 min 0 W/m 8,4 km/h (2 Bft)
03.04.2015 00:18 3,1 C 1,1 C 85 % 1022,7 hPa 0,0 l/m 0 min 0 min 0 W/m 8,4 km/h (2 Bft)
03.04.2015 00:20 3,1 C 1,1 C 85 % 1022,8 hPa 0,0 l/m 0 min 0 min 0 W/m 6,3 km/h (2 Bft)
03.04.2015 00:22 3,1 C 0,6 C 85 % 1022,7 hPa 0,0 l/m 0 min 0 min 0 W/m 4,2 km/h (1 Bft)
03.04.2015 00:24 3,0 C 0,6 C 85 % 1022,7 hPa 0,0 l/m 0 min 0 min 0 W/m 2,1 km/h (1 Bft)
03.04.2015 00:26 3,0 C 0,6 C 86 % 1022,7 hPa 0,0 l/m 0 min 0 min 0 W/m 8,4 km/h (2 Bft)
03.04.2015 00:28 2,9 C 0,6 C 86 % 1022,7 hPa 0,0 l/m 0 min 0 min 0 W/m 10,5 km/h (2 Bft)
03.04.2015 00:30 2,9 C 0,6 C 86 % 1022,7 hPa 0,0 l/m 0 min 0 min 0 W/m 12,6 km/h (3 Bft)
03.04.2015 00:32 2,9 C 1,1 C 86 % 1022,8 hPa 0,0 l/m 0 min 0 min 0 W/m 8,4 km/h (2 Bft)
03.04.2015 00:34 2,9 C 1,1 C 86 % 1022,7 hPa 0,0 l/m 0 min 0 min 0 W/m 6,3 km/h (2 Bft)
03.04.2015 00:36 2,8 C 1,1 C 86 % 1022,7 hPa 0,0 l/m 0 min 0 min 0 W/m 8,4 km/h (2 Bft)
03.04.2015 00:38 2,8 C 1,1 C 86 % 1022,8 hPa 0,0 l/m 0 min 0 min 0 W/m 6,3 km/h (2 Bft)
03.04.2015 00:40 2,8 C 0,6 C 86 % 1022,7 hPa 0,0 l/m 0 min 0 min 0 W/m 6,3 km/h (2 Bft)
03.04.2015 00:42 2,7 C 0,6 C 86 % 1022,7 hPa 0,0 l/m 0 min 0 min 0 W/m 6,3 km/h (2 Bft)
03.04.2015 00:44 2,7 C 0,6 C 86 % 1022,8 hPa 0,0 l/m 0 min 0 min 0 W/m 10,5 km/h (2 Bft)
03.04.2015 00:46 2,7 C 0,6 C 86 % 1022,8 hPa 0,0 l/m 0 min 0 min 0 W/m 8,4 km/h (2 Bft)
03.04.2015 00:48 2,7 C 0,6 C 86 % 1022,8 hPa 0,0 l/m 0 min 0 min 0 W/m 6,3 km/h (2 Bft)
03.04.2015 00:50 2,6 C 0,6 C 86 % 1022,8 hPa 0,0 l/m 0 min 0 min 0 W/m 6,3 km/h (2 Bft)
03.04.2015 00:52 2,6 C 0,6 C 86 % 1022,7 hPa 0,0 l/m 0 min 0 min 0 W/m 10,5 km/h (2 Bft)
03.04.2015 00:54 2,6 C 0,6 C 86 % 1022,7 hPa 0,0 l/m 0 min 0 min 0 W/m 8,4 km/h (2 Bft)
03.04.2015 00:56 2,6 C 0,6 C 86 % 1022,7 hPa 0,0 l/m 0 min 0 min 0 W/m 6,3 km/h (2 Bft)
03.04.2015 00:58 2,5 C 0,6 C 86 % 1022,7 hPa 0,0 l/m 0 min 0 min 0 W/m 6,3 km/h (2 Bft)
03.04.2015 01:00 2,4 C 0,6 C 87 % 1022,6 hPa 0,0 l/m 0 min 0 min 0 W/m 8,4 km/h (2 Bft)
03.04.2015 01:02 2,4 C 0,6 C 87 % 1022,7 hPa 0,0 l/m 0 min 0 min 0 W/m 8,4 km/h (2 Bft)
03.04.2015 01:04 2,4 C 0,6 C 87 % 1022,8 hPa 0,0 l/m 0 min 0 min 0 W/m 4,2 km/h (1 Bft)
03.04.2015 01:06 2,4 C 0,6 C 87 % 1022,8 hPa 0,0 l/m 0 min 0 min 0 W/m 8,4 km/h (2 Bft)
03.04.2015 01:08 2,3 C 0,6 C 87 % 1022,7 hPa 0,0 l/m 0 min 0 min 0 W/m 8,4 km/h (2 Bft)
03.04.2015 01:10 2,3 C 0,6 C 87 % 1022,7 hPa 0,0 l/m 0 min 0 min 0 W/m 6,3 km/h (2 Bft)
03.04.2015 01:12 2,3 C 0,0 C 87 % 1022,8 hPa 0,0 l/m 0 min 0 min 0 W/m 6,3 km/h (2 Bft)
03.04.2015 01:14 2,3 C 0,0 C 87 % 1022,8 hPa 0,0 l/m 0 min 0 min 0 W/m 4,2 km/h (1 Bft)
03.04.2015 01:16 2,3 C 0,0 C 87 % 1022,8 hPa 0,0 l/m 0 min 0 min 0 W/m 8,4 km/h (2 Bft)
03.04.2015 01:18 2,2 C 0,6 C 87 % 1022,8 hPa 0,0 l/m 0 min 0 min 0 W/m 10,5 km/h (2 Bft)
03.04.2015 01:20 2,2 C 0,6 C 87 % 1022,8 hPa 0,0 l/m 0 min 0 min 0 W/m 6,3 km/h (2 Bft)
03.04.2015 01:22 2,2 C 0,6 C 87 % 1022,9 hPa 0,0 l/m 0 min 0 min 0 W/m 6,3 km/h (2 Bft)
03.04.2015 01:24 2,2 C 0,6 C 87 % 1022,8 hPa 0,0 l/m 0 min 0 min 0 W/m 8,4 km/h (2 Bft)
03.04.2015 01:26 2,1 C 0,6 C 87 % 1022,8 hPa 0,0 l/m 0 min 0 min 0 W/m 10,5 km/h (2 Bft)
03.04.2015 01:28 2,1 C 0,6 C 87 % 1022,8 hPa 0,0 l/m 0 min 0 min 0 W/m 6,3 km/h (2 Bft)
03.04.2015 01:30 2,1 C 1,1 C 88 % 1022,8 hPa 0,0 l/m 0 min 0 min 0 W/m 6,3 km/h (2 Bft)
03.04.2015 01:32 2,1 C 1,1 C 88 % 1022,8 hPa 0,0 l/m 0 min 0 min 0 W/m 8,4 km/h (2 Bft)
03.04.2015 01:34 2,1 C 1,1 C 88 % 1022,8 hPa 0,0 l/m 0 min 0 min 0 W/m 8,4 km/h (2 Bft)
03.04.2015 01:36 2,1 C 1,1 C 88 % 1022,9 hPa 0,0 l/m 0 min 0 min 0 W/m 8,4 km/h (2 Bft)
03.04.2015 01:38 2,1 C 1,7 C 88 % 1022,8 hPa 0,0 l/m 0 min 0 min 0 W/m 8,4 km/h (2 Bft)
03.04.2015 01:40 2,2 C 1,7 C 89 % 1022,9 hPa 0,0 l/m 0 min 0 min 0 W/m 12,6 km/h (3 Bft)
03.04.2015 01:42 2,2 C 1,7 C 89 % 1022,9 hPa 0,0 l/m 0 min 0 min 0 W/m 12,6 km/h (3 Bft)
03.04.2015 01:44 2,2 C 1,7 C 89 % 1022,9 hPa 0,0 l/m 0 min 0 min 0 W/m 8,4 km/h (2 Bft)
03.04.2015 01:46 2,3 C 1,7 C 89 % 1022,8 hPa 0,0 l/m 0 min 0 min 0 W/m 10,5 km/h (2 Bft)
03.04.2015 01:48 2,3 C 2,2 C 89 % 1022,9 hPa 0,0 l/m 0 min 0 min 0 W/m 12,6 km/h (3 Bft)
03.04.2015 01:50 2,3 C 2,2 C 89 % 1022,9 hPa 0,0 l/m 0 min 0 min 0 W/m 10,5 km/h (2 Bft)
03.04.2015 01:52 2,4 C 2,2 C 90 % 1022,9 hPa 0,0 l/m 0 min 0 min 0 W/m 8,4 km/h (2 Bft)
03.04.2015 01:54 2,4 C 2,2 C 90 % 1022,9 hPa 0,0 l/m 0 min 0 min 0 W/m 10,5 km/h (2 Bft)
03.04.2015 01:56 2,4 C 2,2 C 90 % 1022,9 hPa 0,0 l/m 0 min 0 min 0 W/m 12,6 km/h (3 Bft)
03.04.2015 01:58 2,5 C 2,2 C 90 % 1022,9 hPa 0,0 l/m 0 min 0 min 0 W/m 12,6 km/h (3 Bft)
03.04.2015 02:00 2,6 C 2,2 C 90 % 1022,9 hPa 0,0 l/m 0 min 0 min 0 W/m 12,6 km/h (3 Bft)
03.04.2015 02:02 2,6 C 2,2 C 90 % 1022,9 hPa 0,0 l/m 0 min 0 min 0 W/m 10,5 km/h (2 Bft)
03.04.2015 02:04 2,6 C 2,2 C 90 % 1022,9 hPa 0,0 l/m 0 min 0 min 0 W/m 14,6 km/h (3 Bft)
03.04.2015 02:06 2,7 C 2,2 C 90 % 1022,9 hPa 0,0 l/m 0 min 0 min 0 W/m 8,4 km/h (2 Bft)
03.04.2015 02:08 2,7 C 2,2 C 90 % 1022,8 hPa 0,0 l/m 0 min 0 min 0 W/m 10,5 km/h (2 Bft)
03.04.2015 02:10 2,7 C 2,2 C 91 % 1022,8 hPa 0,0 l/m 0 min 0 min 0 W/m 6,3 km/h (2 Bft)
03.04.2015 02:12 2,8 C 2,2 C 91 % 1022,8 hPa 0,0 l/m 0 min 0 min 0 W/m 8,4 km/h (2 Bft)
03.04.2015 02:14 2,8 C 2,2 C 91 % 1022,8 hPa 0,0 l/m 0 min 0 min 0 W/m 8,4 km/h (2 Bft)
03.04.2015 02:16 2,8 C 2,2 C 91 % 1022,8 hPa 0,0 l/m 0 min 0 min 0 W/m 8,4 km/h (2 Bft)
03.04.2015 02:18 2,9 C 2,2 C 91 % 1022,9 hPa 0,0 l/m 0 min 0 min 0 W/m 10,5 km/h (2 Bft)
03.04.2015 02:20 2,9 C 2,2 C 91 % 1022,8 hPa 0,0 l/m 0 min 0 min 0 W/m 12,6 km/h (3 Bft)
03.04.2015 02:22 2,9 C 2,2 C 91 % 1022,8 hPa 0,0 l/m 0 min 0 min 0 W/m 12,6 km/h (3 Bft)
03.04.2015 02:24 2,9 C 2,8 C 91 % 1022,9 hPa 0,0 l/m 0 min 0 min 0 W/m 10,5 km/h (2 Bft)
03.04.2015 02:26 3,0 C 2,8 C 91 % 1022,8 hPa 0,0 l/m 0 min 0 min 0 W/m 8,4 km/h (2 Bft)
03.04.2015 02:28 3,0 C 2,8 C 91 % 1022,7 hPa 0,0 l/m 0 min 0 min 0 W/m 8,4 km/h (2 Bft)
03.04.2015 02:30 3,1 C 2,8 C 91 % 1022,8 hPa 0,0 l/m 0 min 0 min 0 W/m 6,3 km/h (2 Bft)
03.04.2015 02:32 3,1 C 2,8 C 91 % 1022,8 hPa 0,0 l/m 0 min 0 min 0 W/m 6,3 km/h (2 Bft)
03.04.2015 02:34 3,1 C 2,8 C 91 % 1022,8 hPa 0,0 l/m 0 min 0 min 0 W/m 4,2 km/h (1 Bft)
03.04.2015 02:36 3,1 C 2,8 C 91 % 1022,8 hPa 0,0 l/m 0 min 0 min 0 W/m 4,2 km/h (1 Bft)
03.04.2015 02:38 3,2 C 2,8 C 91 % 1022,8 hPa 0,0 l/m 0 min 0 min 0 W/m 4,2 km/h (1 Bft)
03.04.2015 02:40 3,2 C 2,8 C 91 % 1022,8 hPa 0,0 l/m 0 min 0 min 0 W/m 6,3 km/h (2 Bft)
03.04.2015 02:42 3,2 C 2,8 C 91 % 1022,8 hPa 0,0 l/m 0 min 0 min 0 W/m 6,3 km/h (2 Bft)
03.04.2015 02:44 3,2 C 2,8 C 91 % 1022,8 hPa 0,0 l/m 0 min 0 min 0 W/m 8,4 km/h (2 Bft)
03.04.2015 02:46 3,2 C 2,8 C 91 % 1022,8 hPa 0,0 l/m 0 min 0 min 0 W/m 10,5 km/h (2 Bft)
03.04.2015 02:48 3,2 C 2,8 C 91 % 1022,8 hPa 0,0 l/m 0 min 0 min 0 W/m 10,5 km/h (2 Bft)
03.04.2015 02:50 3,3 C 2,8 C 91 % 1022,9 hPa 0,0 l/m 0 min 0 min 0 W/m 8,4 km/h (2 Bft)
03.04.2015 02:52 3,3 C 2,8 C 91 % 1022,8 hPa 0,0 l/m 0 min 0 min 0 W/m 14,6 km/h (3 Bft)
03.04.2015 02:54 3,3 C 2,8 C 91 % 1022,8 hPa 0,0 l/m 0 min 0 min 0 W/m 6,3 km/h (2 Bft)
03.04.2015 02:56 3,3 C 2,8 C 91 % 1022,8 hPa 0,0 l/m 0 min 0 min 0 W/m 10,5 km/h (2 Bft)
03.04.2015 02:58 3,3 C 2,8 C 91 % 1022,8 hPa 0,0 l/m 0 min 0 min 0 W/m 10,5 km/h (2 Bft)
03.04.2015 03:00 3,3 C 2,8 C 91 % 1022,8 hPa 0,0 l/m 0 min 0 min 0 W/m 10,5 km/h (2 Bft)
03.04.2015 03:02 3,4 C 2,8 C 91 % 1022,8 hPa 0,0 l/m 0 min 0 min 0 W/m 6,3 km/h (2 Bft)
03.04.2015 03:04 3,4 C 2,8 C 91 % 1022,8 hPa 0,0 l/m 0 min 0 min 0 W/m 8,4 km/h (2 Bft)
03.04.2015 03:06 3,4 C 2,8 C 91 % 1022,8 hPa 0,0 l/m 0 min 0 min 0 W/m 12,6 km/h (3 Bft)
03.04.2015 03:08 3,4 C 2,8 C 91 % 1022,8 hPa 0,0 l/m 0 min 0 min 0 W/m 8,4 km/h (2 Bft)
03.04.2015 03:10 3,4 C 2,8 C 91 % 1022,8 hPa 0,0 l/m 0 min 0 min 0 W/m 10,5 km/h (2 Bft)
03.04.2015 03:12 3,4 C 2,8 C 91 % 1022,8 hPa 0,0 l/m 0 min 0 min 0 W/m 10,5 km/h (2 Bft)
03.04.2015 03:14 3,4 C 2,8 C 91 % 1022,8 hPa 0,0 l/m 0 min 0 min 0 W/m 10,5 km/h (2 Bft)
03.04.2015 03:16 3,4 C 2,8 C 91 % 1022,8 hPa 0,0 l/m 0 min 0 min 0 W/m 10,5 km/h (2 Bft)
03.04.2015 03:18 3,5 C 2,8 C 91 % 1022,7 hPa 0,0 l/m 0 min 0 min 0 W/m 8,4 km/h (2 Bft)
03.04.2015 03:20 3,5 C 2,8 C 91 % 1022,8 hPa 0,0 l/m 0 min 0 min 0 W/m 8,4 km/h (2 Bft)
03.04.2015 03:22 3,5 C 2,8 C 91 % 1022,8 hPa 0,0 l/m 0 min 0 min 0 W/m 6,3 km/h (2 Bft)
03.04.2015 03:24 3,5 C 2,8 C 91 % 1022,8 hPa 0,0 l/m 0 min 0 min 0 W/m 10,5 km/h (2 Bft)
03.04.2015 03:26 3,5 C 2,8 C 91 % 1022,8 hPa 0,0 l/m 0 min 0 min 0 W/m 8,4 km/h (2 Bft)
03.04.2015 03:28 3,5 C 2,8 C 91 % 1022,8 hPa 0,0 l/m 0 min 0 min 0 W/m 10,5 km/h (2 Bft)
03.04.2015 03:30 3,6 C 2,8 C 91 % 1022,8 hPa 0,0 l/m 0 min 0 min 0 W/m 8,4 km/h (2 Bft)
03.04.2015 03:32 3,5 C 2,8 C 90 % 1022,8 hPa 0,0 l/m 0 min 0 min 0 W/m 6,3 km/h (2 Bft)
03.04.2015 03:34 3,6 C 2,8 C 90 % 1022,8 hPa 0,0 l/m 0 min 0 min 0 W/m 4,2 km/h (1 Bft)
03.04.2015 03:36 3,6 C 2,8 C 90 % 1022,8 hPa 0,0 l/m 0 min 0 min 0 W/m 8,4 km/h (2 Bft)
03.04.2015 03:38 3,6 C 2,8 C 90 % 1022,8 hPa 0,0 l/m 0 min 0 min 0 W/m 6,3 km/h (2 Bft)
03.04.2015 03:40 3,6 C 2,8 C 90 % 1022,7 hPa 0,0 l/m 0 min 0 min 0 W/m 6,3 km/h (2 Bft)
03.04.2015 03:42 3,6 C 2,8 C 90 % 1022,8 hPa 0,0 l/m 0 min 0 min 0 W/m 4,2 km/h (1 Bft)
03.04.2015 03:44 3,6 C 2,8 C 90 % 1022,8 hPa 0,0 l/m 0 min 0 min 0 W/m 8,4 km/h (2 Bft)
03.04.2015 03:46 3,6 C 2,8 C 90 % 1022,8 hPa 0,0 l/m 0 min 0 min 0 W/m 6,3 km/h (2 Bft)
03.04.2015 03:48 3,6 C 2,8 C 90 % 1022,8 hPa 0,0 l/m 0 min 0 min 0 W/m 6,3 km/h (2 Bft)
03.04.2015 03:50 3,6 C 2,8 C 90 % 1022,8 hPa 0,0 l/m 0 min 0 min 0 W/m 6,3 km/h (2 Bft)
03.04.2015 03:52 3,6 C 2,8 C 90 % 1022,8 hPa 0,0 l/m 0 min 0 min 0 W/m 8,4 km/h (2 Bft)
03.04.2015 03:54 3,6 C 2,8 C 90 % 1022,8 hPa 0,0 l/m 0 min 0 min 0 W/m 8,4 km/h (2 Bft)
03.04.2015 03:56 3,6 C 2,8 C 90 % 1022,8 hPa 0,0 l/m 0 min 0 min 0 W/m 6,3 km/h (2 Bft)
03.04.2015 03:58 3,6 C 2,8 C 90 % 1022,8 hPa 0,0 l/m 0 min 0 min 0 W/m 6,3 km/h (2 Bft)
03.04.2015 04:00 3,6 C 2,8 C 90 % 1022,8 hPa 0,0 l/m 0 min 0 min 0 W/m 6,3 km/h (2 Bft)
03.04.2015 04:02 3,6 C 2,8 C 90 % 1022,8 hPa 0,0 l/m 0 min 0 min 0 W/m 6,3 km/h (2 Bft)
03.04.2015 04:04 3,6 C 2,8 C 90 % 1022,8 hPa 0,0 l/m 0 min 0 min 0 W/m 8,4 km/h (2 Bft)
03.04.2015 04:06 3,6 C 2,8 C 90 % 1022,8 hPa 0,0 l/m 0 min 0 min 0 W/m 8,4 km/h (2 Bft)
03.04.2015 04:08 3,6 C 2,8 C 90 % 1022,8 hPa 0,0 l/m 0 min 0 min 0 W/m 6,3 km/h (2 Bft)
03.04.2015 04:10 3,6 C 2,8 C 90 % 1022,7 hPa 0,0 l/m 0 min 0 min 0 W/m 6,3 km/h (2 Bft)
03.04.2015 04:12 3,6 C 2,8 C 90 % 1022,7 hPa 0,0 l/m 0 min 0 min 0 W/m 4,2 km/h (1 Bft)
03.04.2015 04:14 3,6 C 2,8 C 90 % 1022,8 hPa 0,0 l/m 0 min 0 min 0 W/m 6,3 km/h (2 Bft)
03.04.2015 04:16 3,6 C 2,8 C 90 % 1022,8 hPa 0,0 l/m 0 min 0 min 0 W/m 6,3 km/h (2 Bft)
03.04.2015 04:18 3,6 C 2,8 C 90 % 1022,8 hPa 0,0 l/m 0 min 0 min 0 W/m 6,3 km/h (2 Bft)
03.04.2015 04:20 3,6 C 2,8 C 90 % 1022,8 hPa 0,0 l/m 0 min 0 min 0 W/m 6,3 km/h (2 Bft)
03.04.2015 04:22 3,6 C 2,8 C 90 % 1022,7 hPa 0,0 l/m 0 min 0 min 0 W/m 8,4 km/h (2 Bft)
03.04.2015 04:24 3,6 C 2,8 C 90 % 1022,8 hPa 0,0 l/m 0 min 0 min 0 W/m 6,3 km/h (2 Bft)
03.04.2015 04:26 3,6 C 2,8 C 90 % 1022,7 hPa 0,0 l/m 0 min 0 min 0 W/m 6,3 km/h (2 Bft)
03.04.2015 04:28 3,6 C 2,8 C 90 % 1022,6 hPa 0,0 l/m 0 min 0 min 0 W/m 6,3 km/h (2 Bft)
03.04.2015 04:30 3,6 C 2,8 C 90 % 1022,6 hPa 0,0 l/m 0 min 0 min 0 W/m 4,2 km/h (1 Bft)
03.04.2015 04:32 3,6 C 2,8 C 90 % 1022,6 hPa 0,0 l/m 0 min 0 min 0 W/m 4,2 km/h (1 Bft)
03.04.2015 04:34 3,6 C 2,8 C 90 % 1022,5 hPa 0,0 l/m 0 min 0 min 0 W/m 6,3 km/h (2 Bft)
03.04.2015 04:36 3,6 C 2,8 C 90 % 1022,6 hPa 0,0 l/m 0 min 0 min 0 W/m 6,3 km/h (2 Bft)
03.04.2015 04:38 3,6 C 2,8 C 90 % 1022,7 hPa 0,0 l/m 0 min 0 min 0 W/m 4,2 km/h (1 Bft)
03.04.2015 04:40 3,6 C 2,8 C 90 % 1022,7 hPa 0,0 l/m 0 min 0 min 0 W/m 6,3 km/h (2 Bft)
03.04.2015 04:42 3,6 C 2,8 C 90 % 1022,6 hPa 0,0 l/m 0 min 0 min 0 W/m 4,2 km/h (1 Bft)
03.04.2015 04:44 3,6 C 2,8 C 90 % 1022,6 hPa 0,0 l/m 0 min 0 min 0 W/m 6,3 km/h (2 Bft)
03.04.2015 04:46 3,6 C 2,8 C 90 % 1022,6 hPa 0,0 l/m 0 min 0 min 0 W/m 8,4 km/h (2 Bft)
03.04.2015 04:48 3,5 C 2,8 C 90 % 1022,6 hPa 0,0 l/m 0 min 0 min 0 W/m 6,3 km/h (2 Bft)
03.04.2015 04:50 3,5 C 2,8 C 90 % 1022,6 hPa 0,0 l/m 0 min 0 min 0 W/m 6,3 km/h (2 Bft)
03.04.2015 04:52 3,5 C 2,8 C 90 % 1022,7 hPa 0,0 l/m 0 min 0 min 0 W/m 6,3 km/h (2 Bft)
03.04.2015 04:54 3,5 C 2,8 C 90 % 1022,6 hPa 0,0 l/m 0 min 0 min 0 W/m 6,3 km/h (2 Bft)
03.04.2015 04:56 3,5 C 2,8 C 90 % 1022,6 hPa 0,0 l/m 0 min 0 min 0 W/m 6,3 km/h (2 Bft)
03.04.2015 04:58 3,5 C 2,8 C 90 % 1022,6 hPa 0,0 l/m 0 min 0 min 0 W/m 8,4 km/h (2 Bft)
03.04.2015 05:00 3,5 C 2,8 C 90 % 1022,5 hPa 0,0 l/m 0 min 0 min 0 W/m 4,2 km/h (1 Bft)
03.04.2015 05:02 3,5 C 2,8 C 90 % 1022,4 hPa 0,0 l/m 0 min 0 min 0 W/m 6,3 km/h (2 Bft)
03.04.2015 05:04 3,5 C 2,2 C 90 % 1022,4 hPa 0,0 l/m 0 min 0 min 0 W/m 6,3 km/h (2 Bft)
03.04.2015 05:06 3,5 C 2,2 C 90 % 1022,4 hPa 0,0 l/m 0 min 0 min 0 W/m 8,4 km/h (2 Bft)
03.04.2015 05:08 3,5 C 2,2 C 90 % 1022,5 hPa 0,0 l/m 0 min 0 min 0 W/m 8,4 km/h (2 Bft)
03.04.2015 05:10 3,5 C 2,2 C 90 % 1022,5 hPa 0,0 l/m 0 min 0 min 0 W/m 6,3 km/h (2 Bft)
03.04.2015 05:12 3,5 C 2,8 C 90 % 1022,4 hPa 0,0 l/m 0 min 0 min 0 W/m 6,3 km/h (2 Bft)
03.04.2015 05:14 3,5 C 2,8 C 90 % 1022,4 hPa 0,0 l/m 0 min 0 min 0 W/m 4,2 km/h (1 Bft)
03.04.2015 05:16 3,5 C 2,8 C 90 % 1022,4 hPa 0,0 l/m 0 min 0 min 0 W/m 4,2 km/h (1 Bft)
03.04.2015 05:18 3,4 C 2,8 C 90 % 1022,4 hPa 0,0 l/m 0 min 0 min 0 W/m 6,3 km/h (2 Bft)
03.04.2015 05:20 3,5 C 2,8 C 90 % 1022,4 hPa 0,0 l/m 0 min 0 min 0 W/m 6,3 km/h (2 Bft)
03.04.2015 05:22 3,4 C 2,8 C 90 % 1022,4 hPa 0,0 l/m 0 min 0 min 0 W/m 6,3 km/h (2 Bft)
03.04.2015 05:24 3,4 C 2,8 C 90 % 1022,5 hPa 0,0 l/m 0 min 0 min 0 W/m 6,3 km/h (2 Bft)
03.04.2015 05:26 3,4 C 2,8 C 90 % 1022,4 hPa 0,0 l/m 0 min 0 min 0 W/m 6,3 km/h (2 Bft)
03.04.2015 05:28 3,4 C 2,8 C 90 % 1022,5 hPa 0,0 l/m 0 min 0 min 0 W/m 6,3 km/h (2 Bft)
03.04.2015 05:30 3,4 C 2,8 C 90 % 1022,4 hPa 0,0 l/m 0 min 0 min 0 W/m 6,3 km/h (2 Bft)
03.04.2015 05:32 3,4 C 2,8 C 90 % 1022,4 hPa 0,0 l/m 0 min 0 min 0 W/m 6,3 km/h (2 Bft)
03.04.2015 05:34 3,4 C 2,8 C 90 % 1022,4 hPa 0,0 l/m 0 min 0 min 0 W/m 6,3 km/h (2 Bft)
03.04.2015 05:36 3,4 C 2,8 C 90 % 1022,4 hPa 0,0 l/m 0 min 0 min 0 W/m 6,3 km/h (2 Bft)
03.04.2015 05:38 3,4 C 2,8 C 90 % 1022,3 hPa 0,0 l/m 0 min 0 min 0 W/m 6,3 km/h (2 Bft)
03.04.2015 05:40 3,4 C 2,8 C 90 % 1022,3 hPa 0,0 l/m 0 min 0 min 0 W/m 4,2 km/h (1 Bft)
03.04.2015 05:42 3,4 C 2,2 C 90 % 1022,3 hPa 0,0 l/m 0 min 0 min 0 W/m 6,3 km/h (2 Bft)
03.04.2015 05:44 3,4 C 2,2 C 90 % 1022,3 hPa 0,0 l/m 0 min 0 min 0 W/m 8,4 km/h (2 Bft)
03.04.2015 05:46 3,4 C 2,2 C 90 % 1022,3 hPa 0,0 l/m 0 min 0 min 0 W/m 8,4 km/h (2 Bft)
03.04.2015 05:48 3,4 C 2,2 C 90 % 1022,3 hPa 0,0 l/m 0 min 0 min 0 W/m 6,3 km/h (2 Bft)
03.04.2015 05:50 3,4 C 2,2 C 90 % 1022,2 hPa 0,0 l/m 0 min 0 min 0 W/m 8,4 km/h (2 Bft)
03.04.2015 05:52 3,4 C 2,2 C 90 % 1022,2 hPa 0,0 l/m 0 min 0 min 0 W/m 6,3 km/h (2 Bft)
03.04.2015 05:54 3,4 C 2,2 C 90 % 1022,2 hPa 0,0 l/m 0 min 0 min 0 W/m 4,2 km/h (1 Bft)
03.04.2015 05:56 3,4 C 2,2 C 90 % 1022,2 hPa 0,0 l/m 0 min 0 min 0 W/m 6,3 km/h (2 Bft)
03.04.2015 05:58 3,4 C 2,2 C 90 % 1022,2 hPa 0,0 l/m 0 min 0 min 0 W/m 6,3 km/h (2 Bft)
03.04.2015 06:00 3,4 C 2,2 C 90 % 1022,1 hPa 0,0 l/m 0 min 0 min 0 W/m 8,4 km/h (2 Bft)
03.04.2015 06:02 3,4 C 2,2 C 90 % 1022,1 hPa 0,0 l/m 0 min 0 min 0 W/m 8,4 km/h (2 Bft)
03.04.2015 06:06 3,4 C 2,2 C 90 % 1022,2 hPa 0,0 l/m 0 min 0 min 0 W/m 12,6 km/h (3 Bft)
03.04.2015 06:08 3,3 C 2,2 C 90 % 1022,1 hPa 0,0 l/m 0 min 0 min 0 W/m 10,5 km/h (2 Bft)
03.04.2015 06:10 3,3 C 2,2 C 90 % 1022,2 hPa 0,0 l/m 0 min 0 min 0 W/m 10,5 km/h (2 Bft)
03.04.2015 06:12 3,3 C 2,2 C 90 % 1022,2 hPa 0,0 l/m 0 min 0 min 0 W/m 10,5 km/h (2 Bft)
03.04.2015 06:14 3,3 C 2,2 C 90 % 1022,2 hPa 0,0 l/m 0 min 0 min 0 W/m 12,6 km/h (3 Bft)
03.04.2015 06:16 3,3 C 2,2 C 90 % 1022,2 hPa 0,0 l/m 0 min 0 min 0 W/m 14,6 km/h (3 Bft)
03.04.2015 06:18 3,3 C 2,2 C 90 % 1022,2 hPa 0,0 l/m 0 min 0 min 0 W/m 10,5 km/h (2 Bft)
03.04.2015 06:20 3,2 C 2,2 C 90 % 1022,2 hPa 0,0 l/m 0 min 0 min 0 W/m 10,5 km/h (2 Bft)
03.04.2015 06:22 3,2 C 2,2 C 90 % 1022,2 hPa 0,0 l/m 0 min 0 min 0 W/m 8,4 km/h (2 Bft)
03.04.2015 06:24 3,2 C 2,2 C 90 % 1022,2 hPa 0,0 l/m 0 min 0 min 0 W/m 6,3 km/h (2 Bft)
03.04.2015 06:26 3,2 C 2,2 C 90 % 1022,2 hPa 0,0 l/m 0 min 0 min 0 W/m 8,4 km/h (2 Bft)
03.04.2015 06:28 3,2 C 2,2 C 90 % 1022,2 hPa 0,0 l/m 0 min 0 min 0 W/m 6,3 km/h (2 Bft)
03.04.2015 06:30 3,2 C 2,2 C 90 % 1022,2 hPa 0,0 l/m 0 min 0 min 0 W/m 4,2 km/h (1 Bft)
03.04.2015 06:32 3,2 C 2,2 C 90 % 1022,2 hPa 0,0 l/m 0 min 0 min 0 W/m 4,2 km/h (1 Bft)
03.04.2015 06:34 3,2 C 2,2 C 90 % 1022,2 hPa 0,0 l/m 0 min 0 min 0 W/m 4,2 km/h (1 Bft)
03.04.2015 06:36 3,2 C 2,2 C 90 % 1022,2 hPa 0,0 l/m 0 min 0 min 0 W/m 4,2 km/h (1 Bft)
03.04.2015 06:38 3,2 C 2,2 C 90 % 1022,2 hPa 0,0 l/m 0 min 0 min 0 W/m 4,2 km/h (1 Bft)
03.04.2015 06:40 3,2 C 2,2 C 90 % 1022,2 hPa 0,0 l/m 0 min 0 min 0 W/m 6,3 km/h (2 Bft)
03.04.2015 06:42 3,2 C 2,2 C 90 % 1022,2 hPa 0,0 l/m 0 min 0 min 0 W/m 4,2 km/h (1 Bft)
03.04.2015 06:44 3,2 C 2,2 C 90 % 1022,2 hPa 0,0 l/m 0 min 0 min 0 W/m 2,1 km/h (1 Bft)
03.04.2015 06:46 3,2 C 2,2 C 90 % 1022,2 hPa 0,0 l/m 0 min 0 min 0 W/m 4,2 km/h (1 Bft)
03.04.2015 06:48 3,2 C 2,2 C 90 % 1022,2 hPa 0,0 l/m 0 min 0 min 0 W/m 4,2 km/h (1 Bft)
03.04.2015 06:50 3,2 C 2,2 C 90 % 1022,2 hPa 0,0 l/m 0 min 0 min 0 W/m 2,1 km/h (1 Bft)
03.04.2015 06:52 3,2 C 2,2 C 90 % 1022,2 hPa 0,0 l/m 0 min 0 min 0 W/m 2,1 km/h (1 Bft)
03.04.2015 06:54 3,2 C 2,2 C 90 % 1022,2 hPa 0,0 l/m 0 min 0 min 0 W/m 2,1 km/h (1 Bft)
03.04.2015 06:56 3,2 C 2,2 C 90 % 1022,2 hPa 0,0 l/m 0 min 0 min 0 W/m 2,1 km/h (1 Bft)
03.04.2015 06:58 3,2 C 2,2 C 90 % 1022,2 hPa 0,0 l/m 0 min 0 min 0 W/m 4,2 km/h (1 Bft)
03.04.2015 07:00 3,2 C 2,2 C 90 % 1022,2 hPa 0,0 l/m 0 min 0 min 0 W/m 4,2 km/h (1 Bft)
03.04.2015 07:02 3,2 C 2,2 C 90 % 1022,2 hPa 0,0 l/m 0 min 0 min 0 W/m 4,2 km/h (1 Bft)
03.04.2015 07:04 3,2 C 2,2 C 90 % 1022,2 hPa 0,0 l/m 0 min 0 min 2 W/m 4,2 km/h (1 Bft)
03.04.2015 07:06 3,2 C 2,2 C 90 % 1022,2 hPa 0,0 l/m 0 min 0 min 5 W/m 2,1 km/h (1 Bft)
03.04.2015 07:08 3,2 C 2,2 C 90 % 1022,2 hPa 0,0 l/m 0 min 0 min 5 W/m 2,1 km/h (1 Bft)
03.04.2015 07:10 3,2 C 2,2 C 90 % 1022,2 hPa 0,0 l/m 0 min 0 min 5 W/m 4,2 km/h (1 Bft)
03.04.2015 07:12 3,2 C 2,2 C 90 % 1022,2 hPa 0,0 l/m 0 min 0 min 5 W/m 4,2 km/h (1 Bft)
03.04.2015 07:14 3,2 C 2,2 C 90 % 1022,2 hPa 0,0 l/m 0 min 0 min 7 W/m 4,2 km/h (1 Bft)
03.04.2015 07:16 3,2 C 2,2 C 90 % 1022,2 hPa 0,0 l/m 0 min 0 min 7 W/m 4,2 km/h (1 Bft)
03.04.2015 07:18 3,2 C 2,2 C 90 % 1022,1 hPa 0,0 l/m 0 min 0 min 9 W/m 4,2 km/h (1 Bft)
03.04.2015 07:20 3,2 C 2,2 C 90 % 1022,1 hPa 0,0 l/m 0 min 0 min 10 W/m 4,2 km/h (1 Bft)
03.04.2015 07:22 3,2 C 2,2 C 90 % 1022,1 hPa 0,0 l/m 0 min 0 min 12 W/m 6,3 km/h (2 Bft)
03.04.2015 07:24 3,2 C 2,2 C 90 % 1022,2 hPa 0,0 l/m 0 min 0 min 14 W/m 6,3 km/h (2 Bft)
03.04.2015 07:26 3,2 C 2,8 C 90 % 1022,1 hPa 0,0 l/m 0 min 0 min 18 W/m 6,3 km/h (2 Bft)
03.04.2015 07:28 3,2 C 2,8 C 90 % 1022,1 hPa 0,0 l/m 2 min 0 min 22 W/m 8,4 km/h (2 Bft)
03.04.2015 07:30 3,2 C 2,8 C 90 % 1022,1 hPa 0,0 l/m 2 min 0 min 27 W/m 8,4 km/h (2 Bft)
03.04.2015 07:32 3,2 C 2,8 C 90 % 1022,1 hPa 0,0 l/m 2 min 0 min 35 W/m 8,4 km/h (2 Bft)
03.04.2015 07:34 3,2 C 2,8 C 90 % 1022,1 hPa 0,0 l/m 2 min 0 min 44 W/m 8,4 km/h (2 Bft)
03.04.2015 07:36 3,2 C 2,8 C 90 % 1022,1 hPa 0,0 l/m 2 min 0 min 50 W/m 4,2 km/h (1 Bft)
03.04.2015 07:38 3,3 C 2,8 C 90 % 1022,1 hPa 0,0 l/m 2 min 0 min 56 W/m 4,2 km/h (1 Bft)
03.04.2015 07:40 3,3 C 2,8 C 90 % 1022,1 hPa 0,0 l/m 2 min 0 min 63 W/m 4,2 km/h (1 Bft)
03.04.2015 07:42 3,3 C 3,3 C 90 % 1022,1 hPa 0,0 l/m 2 min 0 min 67 W/m 6,3 km/h (2 Bft)
03.04.2015 07:44 3,3 C 3,3 C 90 % 1022,1 hPa 0,0 l/m 2 min 0 min 73 W/m 6,3 km/h (2 Bft)
03.04.2015 07:46 3,3 C 3,3 C 90 % 1022,1 hPa 0,0 l/m 2 min 0 min 86 W/m 4,2 km/h (1 Bft)
03.04.2015 07:48 3,3 C 3,3 C 90 % 1022,1 hPa 0,0 l/m 2 min 0 min 90 W/m 4,2 km/h (1 Bft)
03.04.2015 07:50 3,3 C 3,3 C 90 % 1022,1 hPa 0,0 l/m 2 min 0 min 103 W/m 6,3 km/h (2 Bft)
03.04.2015 07:52 3,3 C 3,3 C 90 % 1022,1 hPa 0,0 l/m 2 min 0 min 114 W/m 4,2 km/h (1 Bft)
03.04.2015 07:54 3,4 C 3,3 C 90 % 1022,1 hPa 0,0 l/m 2 min 0 min 120 W/m 4,2 km/h (1 Bft)
03.04.2015 07:56 3,4 C 3,3 C 90 % 1022,1 hPa 0,0 l/m 2 min 0 min 129 W/m 2,1 km/h (1 Bft)
03.04.2015 07:58 3,4 C 3,3 C 90 % 1022,1 hPa 0,0 l/m 2 min 0 min 138 W/m 4,2 km/h (1 Bft)
03.04.2015 08:00 3,4 C 3,3 C 90 % 1022,1 hPa 0,0 l/m 2 min 0 min 144 W/m 6,3 km/h (2 Bft)
03.04.2015 08:02 3,4 C 3,3 C 90 % 1022,1 hPa 0,0 l/m 2 min 0 min 145 W/m 6,3 km/h (2 Bft)
03.04.2015 08:04 3,5 C 3,9 C 90 % 1022,0 hPa 0,0 l/m 2 min 0 min 138 W/m 6,3 km/h (2 Bft)
03.04.2015 08:06 3,5 C 3,3 C 90 % 1022,0 hPa 0,0 l/m 2 min 0 min 136 W/m 6,3 km/h (2 Bft)
03.04.2015 08:08 3,6 C 3,3 C 90 % 1022,0 hPa 0,0 l/m 2 min 0 min 143 W/m 6,3 km/h (2 Bft)
03.04.2015 08:10 3,6 C 3,3 C 90 % 1022,0 hPa 0,0 l/m 2 min 0 min 149 W/m 6,3 km/h (2 Bft)
03.04.2015 08:12 3,6 C 3,9 C 89 % 1022,0 hPa 0,0 l/m 2 min 0 min 155 W/m 4,2 km/h (1 Bft)
03.04.2015 08:14 3,6 C 3,9 C 89 % 1021,9 hPa 0,0 l/m 2 min 0 min 184 W/m 6,3 km/h (2 Bft)
03.04.2015 08:16 3,6 C 3,9 C 89 % 1022,0 hPa 0,0 l/m 2 min 0 min 202 W/m 6,3 km/h (2 Bft)
03.04.2015 08:18 3,7 C 3,9 C 89 % 1022,0 hPa 0,0 l/m 2 min 0 min 200 W/m 4,2 km/h (1 Bft)
03.04.2015 08:20 3,7 C 3,9 C 88 % 1021,9 hPa 0,0 l/m 2 min 0 min 221 W/m 8,4 km/h (2 Bft)
03.04.2015 08:22 3,7 C 3,9 C 88 % 1022,0 hPa 0,0 l/m 2 min 0 min 230 W/m 6,3 km/h (2 Bft)
03.04.2015 08:24 3,8 C 3,9 C 88 % 1021,9 hPa 0,0 l/m 2 min 0 min 241 W/m 6,3 km/h (2 Bft)
03.04.2015 08:26 3,8 C 3,9 C 88 % 1021,9 hPa 0,0 l/m 2 min 0 min 247 W/m 4,2 km/h (1 Bft)
03.04.2015 08:28 3,9 C 3,9 C 87 % 1021,8 hPa 0,0 l/m 2 min 0 min 248 W/m 6,3 km/h (2 Bft)
03.04.2015 08:30 3,9 C 3,9 C 87 % 1022,0 hPa 0,0 l/m 2 min 0 min 246 W/m 6,3 km/h (2 Bft)
03.04.2015 08:32 4,0 C 3,9 C 87 % 1021,9 hPa 0,0 l/m 2 min 0 min 239 W/m 4,2 km/h (1 Bft)
03.04.2015 08:34 4,0 C 3,9 C 87 % 1021,9 hPa 0,0 l/m 2 min 0 min 168 W/m 4,2 km/h (1 Bft)
03.04.2015 08:36 4,1 C 3,9 C 87 % 1021,8 hPa 0,0 l/m 2 min 0 min 212 W/m 6,3 km/h (2 Bft)
03.04.2015 08:38 4,1 C 3,9 C 86 % 1021,9 hPa 0,0 l/m 2 min 0 min 168 W/m 6,3 km/h (2 Bft)
03.04.2015 08:40 4,1 C 3,9 C 85 % 1021,9 hPa 0,0 l/m 2 min 0 min 134 W/m 6,3 km/h (2 Bft)
03.04.2015 08:42 4,2 C 3,9 C 85 % 1021,8 hPa 0,0 l/m 2 min 0 min 134 W/m 2,1 km/h (1 Bft)
03.04.2015 08:44 4,2 C 3,9 C 84 % 1021,8 hPa 0,0 l/m 2 min 0 min 147 W/m 2,1 km/h (1 Bft)
03.04.2015 08:46 4,2 C 4,4 C 84 % 1021,8 hPa 0,0 l/m 2 min 0 min 169 W/m 4,2 km/h (1 Bft)
03.04.2015 08:48 4,3 C 4,4 C 83 % 1021,7 hPa 0,0 l/m 2 min 0 min 219 W/m 4,2 km/h (1 Bft)
03.04.2015 08:50 4,3 C 4,4 C 83 % 1021,7 hPa 0,0 l/m 2 min 0 min 211 W/m 4,2 km/h (1 Bft)
03.04.2015 08:52 4,4 C 4,4 C 83 % 1021,7 hPa 0,0 l/m 2 min 0 min 177 W/m 6,3 km/h (2 Bft)
03.04.2015 08:54 4,4 C 4,4 C 83 % 1021,7 hPa 0,0 l/m 2 min 0 min 183 W/m 6,3 km/h (2 Bft)
03.04.2015 08:56 4,5 C 4,4 C 82 % 1021,7 hPa 0,0 l/m 2 min 0 min 194 W/m 8,4 km/h (2 Bft)
03.04.2015 08:58 4,6 C 4,4 C 82 % 1021,7 hPa 0,0 l/m 2 min 0 min 207 W/m 8,4 km/h (2 Bft)
03.04.2015 09:00 4,6 C 5,0 C 82 % 1021,7 hPa 0,0 l/m 2 min 0 min 208 W/m 4,2 km/h (1 Bft)
03.04.2015 09:02 4,7 C 5,0 C 82 % 1021,7 hPa 0,0 l/m 2 min 0 min 230 W/m 6,3 km/h (2 Bft)
03.04.2015 09:04 4,8 C 5,0 C 81 % 1021,6 hPa 0,0 l/m 2 min 0 min 218 W/m 6,3 km/h (2 Bft)
03.04.2015 09:06 4,8 C 5,0 C 81 % 1021,6 hPa 0,0 l/m 2 min 0 min 230 W/m 10,5 km/h (2 Bft)
03.04.2015 09:08 4,9 C 5,0 C 81 % 1021,7 hPa 0,0 l/m 2 min 0 min 214 W/m 8,4 km/h (2 Bft)
03.04.2015 09:10 5,0 C 5,0 C 81 % 1021,6 hPa 0,0 l/m 2 min 0 min 214 W/m 6,3 km/h (2 Bft)
03.04.2015 09:12 5,1 C 5,0 C 82 % 1021,7 hPa 0,0 l/m 2 min 0 min 208 W/m 10,5 km/h (2 Bft)
03.04.2015 09:14 5,1 C 5,0 C 81 % 1021,6 hPa 0,0 l/m 2 min 0 min 220 W/m 10,5 km/h (2 Bft)
03.04.2015 09:16 5,2 C 5,0 C 81 % 1021,6 hPa 0,0 l/m 2 min 0 min 246 W/m 10,5 km/h (2 Bft)
03.04.2015 09:18 5,3 C 5,0 C 81 % 1021,5 hPa 0,0 l/m 2 min 0 min 292 W/m 12,6 km/h (3 Bft)
03.04.2015 09:20 5,3 C 5,0 C 81 % 1021,5 hPa 0,0 l/m 2 min 0 min 286 W/m 10,5 km/h (2 Bft)
03.04.2015 09:22 5,4 C 5,0 C 81 % 1021,6 hPa 0,0 l/m 2 min 0 min 332 W/m 12,6 km/h (3 Bft)
03.04.2015 09:24 5,4 C 5,6 C 82 % 1021,6 hPa 0,0 l/m 2 min 0 min 363 W/m 12,6 km/h (3 Bft)
03.04.2015 09:26 5,6 C 5,6 C 82 % 1021,6 hPa 0,0 l/m 2 min 0 min 490 W/m 10,5 km/h (2 Bft)
03.04.2015 09:28 5,6 C 5,6 C 81 % 1021,5 hPa 0,0 l/m 2 min 0 min 464 W/m 10,5 km/h (2 Bft)
03.04.2015 09:30 5,7 C 5,6 C 81 % 1021,4 hPa 0,0 l/m 2 min 0 min 350 W/m 16,7 km/h (3 Bft)
03.04.2015 09:32 5,8 C 5,6 C 81 % 1021,5 hPa 0,0 l/m 2 min 0 min 295 W/m 14,6 km/h (3 Bft)
03.04.2015 09:34 5,9 C 5,6 C 80 % 1021,4 hPa 0,0 l/m 2 min 0 min 333 W/m 10,5 km/h (2 Bft)
03.04.2015 09:36 5,9 C 5,0 C 80 % 1021,4 hPa 0,0 l/m 2 min 0 min 254 W/m 10,5 km/h (2 Bft)
03.04.2015 09:38 6,0 C 5,0 C 79 % 1021,5 hPa 0,0 l/m 2 min 0 min 241 W/m 10,5 km/h (2 Bft)
03.04.2015 09:40 6,0 C 5,0 C 79 % 1021,5 hPa 0,0 l/m 2 min 0 min 238 W/m 10,5 km/h (2 Bft)
03.04.2015 09:42 6,1 C 5,0 C 78 % 1021,5 hPa 0,0 l/m 2 min 0 min 320 W/m 8,4 km/h (2 Bft)
03.04.2015 09:44 6,1 C 5,0 C 78 % 1021,5 hPa 0,0 l/m 2 min 0 min 340 W/m 12,6 km/h (3 Bft)
03.04.2015 09:46 6,1 C 5,0 C 78 % 1021,5 hPa 0,0 l/m 2 min 0 min 306 W/m 14,6 km/h (3 Bft)
03.04.2015 09:48 6,1 C 5,0 C 77 % 1021,5 hPa 0,0 l/m 2 min 0 min 358 W/m 16,7 km/h (3 Bft)
03.04.2015 09:50 6,2 C 4,4 C 77 % 1021,4 hPa 0,0 l/m 2 min 0 min 246 W/m 14,6 km/h (3 Bft)
03.04.2015 09:52 6,2 C 4,4 C 76 % 1021,4 hPa 0,0 l/m 2 min 0 min 286 W/m 10,5 km/h (2 Bft)
03.04.2015 09:54 6,2 C 4,4 C 76 % 1021,4 hPa 0,0 l/m 2 min 0 min 360 W/m 10,5 km/h (2 Bft)
03.04.2015 09:56 6,2 C 4,4 C 76 % 1021,4 hPa 0,0 l/m 2 min 0 min 380 W/m 10,5 km/h (2 Bft)
03.04.2015 09:58 6,2 C 5,0 C 76 % 1021,3 hPa 0,0 l/m 2 min 0 min 380 W/m 12,6 km/h (3 Bft)
03.04.2015 10:00 6,2 C 5,0 C 76 % 1021,3 hPa 0,0 l/m 2 min 0 min 422 W/m 12,6 km/h (3 Bft)
03.04.2015 10:02 6,3 C 5,0 C 75 % 1021,3 hPa 0,0 l/m 2 min 0 min 436 W/m 6,3 km/h (2 Bft)
03.04.2015 10:04 6,3 C 5,0 C 75 % 1021,2 hPa 0,0 l/m 2 min 0 min 429 W/m 6,3 km/h (2 Bft)
03.04.2015 10:06 6,4 C 5,0 C 75 % 1021,2 hPa 0,0 l/m 2 min 0 min 483 W/m 12,6 km/h (3 Bft)
03.04.2015 10:08 6,4 C 5,0 C 75 % 1021,2 hPa 0,0 l/m 2 min 0 min 476 W/m 12,6 km/h (3 Bft)
03.04.2015 10:10 6,4 C 5,0 C 75 % 1021,2 hPa 0,0 l/m 2 min 0 min 447 W/m 12,6 km/h (3 Bft)
03.04.2015 10:12 6,5 C 5,0 C 75 % 1021,1 hPa 0,0 l/m 2 min 0 min 436 W/m 12,6 km/h (3 Bft)
03.04.2015 10:14 6,6 C 5,6 C 75 % 1021,1 hPa 0,0 l/m 2 min 0 min 426 W/m 14,6 km/h (3 Bft)
03.04.2015 10:16 6,6 C 5,6 C 75 % 1021,1 hPa 0,0 l/m 2 min 0 min 429 W/m 20,9 km/h (4 Bft)
03.04.2015 10:18 6,7 C 5,6 C 74 % 1021,1 hPa 0,0 l/m 2 min 0 min 447 W/m 14,6 km/h (3 Bft)
03.04.2015 10:20 6,7 C 5,6 C 74 % 1021,1 hPa 0,0 l/m 2 min 0 min 435 W/m 10,5 km/h (2 Bft)
03.04.2015 10:22 6,7 C 5,6 C 74 % 1021,0 hPa 0,0 l/m 2 min 0 min 452 W/m 8,4 km/h (2 Bft)
03.04.2015 10:24 6,8 C 5,6 C 74 % 1021,0 hPa 0,0 l/m 2 min 0 min 486 W/m 8,4 km/h (2 Bft)
03.04.2015 10:26 6,9 C 6,1 C 74 % 1021,0 hPa 0,0 l/m 2 min 0 min 494 W/m 14,6 km/h (3 Bft)
03.04.2015 10:28 7,0 C 6,1 C 74 % 1021,0 hPa 0,0 l/m 2 min 0 min 488 W/m 16,7 km/h (3 Bft)
03.04.2015 10:30 7,1 C 6,7 C 74 % 1021,0 hPa 0,0 l/m 2 min 0 min 494 W/m 12,6 km/h (3 Bft)
03.04.2015 10:32 7,2 C 6,7 C 74 % 1021,0 hPa 0,0 l/m 2 min 0 min 427 W/m 10,5 km/h (2 Bft)
03.04.2015 10:34 7,2 C 6,7 C 73 % 1021,0 hPa 0,0 l/m 2 min 0 min 455 W/m 12,6 km/h (3 Bft)
03.04.2015 10:36 7,2 C 6,1 C 73 % 1021,0 hPa 0,0 l/m 2 min 0 min 478 W/m 12,6 km/h (3 Bft)
03.04.2015 10:38 7,3 C 6,7 C 73 % 1021,0 hPa 0,0 l/m 2 min 0 min 350 W/m 10,5 km/h (2 Bft)
03.04.2015 10:40 7,3 C 6,7 C 72 % 1021,0 hPa 0,0 l/m 2 min 0 min 468 W/m 8,4 km/h (2 Bft)
03.04.2015 10:42 7,4 C 6,7 C 72 % 1021,0 hPa 0,0 l/m 2 min 0 min 423 W/m 14,6 km/h (3 Bft)
03.04.2015 10:44 7,4 C 6,7 C 72 % 1020,9 hPa 0,0 l/m 2 min 0 min 379 W/m 14,6 km/h (3 Bft)
03.04.2015 10:46 7,4 C 6,1 C 71 % 1020,9 hPa 0,0 l/m 2 min 0 min 364 W/m 14,6 km/h (3 Bft)
03.04.2015 10:48 7,5 C 6,7 C 71 % 1020,9 hPa 0,0 l/m 2 min 0 min 391 W/m 12,6 km/h (3 Bft)
03.04.2015 10:50 7,5 C 6,7 C 71 % 1021,0 hPa 0,0 l/m 2 min 0 min 385 W/m 6,3 km/h (2 Bft)
03.04.2015 10:52 7,5 C 6,7 C 71 % 1020,9 hPa 0,0 l/m 2 min 0 min 398 W/m 10,5 km/h (2 Bft)
03.04.2015 10:54 7,5 C 6,7 C 71 % 1020,9 hPa 0,0 l/m 2 min 0 min 399 W/m 12,6 km/h (3 Bft)
03.04.2015 10:56 7,5 C 6,7 C 71 % 1020,9 hPa 0,0 l/m 2 min 0 min 388 W/m 18,8 km/h (3 Bft)
03.04.2015 10:58 7,5 C 6,7 C 71 % 1020,9 hPa 0,0 l/m 2 min 0 min 398 W/m 12,6 km/h (3 Bft)
03.04.2015 11:00 7,5 C 6,7 C 72 % 1020,9 hPa 0,0 l/m 2 min 0 min 404 W/m 12,6 km/h (3 Bft)
03.04.2015 11:02 7,6 C 6,7 C 72 % 1020,9 hPa 0,0 l/m 2 min 0 min 401 W/m 14,6 km/h (3 Bft)
03.04.2015 11:04 7,6 C 6,7 C 72 % 1020,8 hPa 0,0 l/m 2 min 0 min 415 W/m 8,4 km/h (2 Bft)
03.04.2015 11:06 7,6 C 7,2 C 72 % 1020,8 hPa 0,0 l/m 2 min 0 min 442 W/m 8,4 km/h (2 Bft)
03.04.2015 11:08 7,6 C 7,2 C 72 % 1020,8 hPa 0,0 l/m 2 min 0 min 440 W/m 12,6 km/h (3 Bft)
03.04.2015 11:10 7,7 C 7,2 C 72 % 1020,8 hPa 0,0 l/m 2 min 0 min 426 W/m 14,6 km/h (3 Bft)
03.04.2015 11:12 7,7 C 7,2 C 72 % 1020,7 hPa 0,0 l/m 2 min 0 min 408 W/m 14,6 km/h (3 Bft)
03.04.2015 11:14 7,7 C 7,2 C 72 % 1020,7 hPa 0,0 l/m 2 min 0 min 386 W/m 10,5 km/h (2 Bft)
03.04.2015 11:16 7,8 C 7,2 C 70 % 1020,7 hPa 0,0 l/m 2 min 0 min 381 W/m 10,5 km/h (2 Bft)
03.04.2015 11:18 7,8 C 7,2 C 71 % 1020,7 hPa 0,0 l/m 2 min 0 min 392 W/m 10,5 km/h (2 Bft)
03.04.2015 11:20 7,8 C 7,2 C 71 % 1020,6 hPa 0,0 l/m 2 min 0 min 409 W/m 12,6 km/h (3 Bft)
03.04.2015 11:22 7,9 C 7,2 C 71 % 1020,6 hPa 0,0 l/m 2 min 0 min 421 W/m 10,5 km/h (2 Bft)
03.04.2015 11:24 7,9 C 7,2 C 71 % 1020,6 hPa 0,0 l/m 2 min 0 min 427 W/m 10,5 km/h (2 Bft)
03.04.2015 11:26 7,9 C 7,8 C 71 % 1020,6 hPa 0,0 l/m 2 min 0 min 464 W/m 12,6 km/h (3 Bft)
03.04.2015 11:28 8,0 C 7,8 C 71 % 1020,6 hPa 0,0 l/m 2 min 0 min 484 W/m 10,5 km/h (2 Bft)
03.04.2015 11:30 8,0 C 7,8 C 71 % 1020,5 hPa 0,0 l/m 2 min 0 min 481 W/m 12,6 km/h (3 Bft)
03.04.2015 11:32 8,1 C 7,8 C 71 % 1020,5 hPa 0,0 l/m 2 min 0 min 485 W/m 8,4 km/h (2 Bft)
03.04.2015 11:34 8,1 C 7,8 C 70 % 1020,5 hPa 0,0 l/m 2 min 0 min 497 W/m 16,7 km/h (3 Bft)
03.04.2015 11:36 8,2 C 7,8 C 70 % 1020,5 hPa 0,0 l/m 2 min 0 min 500 W/m 16,7 km/h (3 Bft)
03.04.2015 11:38 8,2 C 8,3 C 69 % 1020,4 hPa 0,0 l/m 2 min 0 min 476 W/m 16,7 km/h (3 Bft)
03.04.2015 11:40 8,3 C 8,3 C 68 % 1020,4 hPa 0,0 l/m 2 min 0 min 468 W/m 10,5 km/h (2 Bft)
03.04.2015 11:42 8,3 C 7,8 C 68 % 1020,4 hPa 0,0 l/m 2 min 0 min 479 W/m 10,5 km/h (2 Bft)
03.04.2015 11:44 8,3 C 8,3 C 68 % 1020,4 hPa 0,0 l/m 2 min 0 min 467 W/m 10,5 km/h (2 Bft)
03.04.2015 11:46 8,4 C 8,3 C 68 % 1020,3 hPa 0,0 l/m 2 min 0 min 461 W/m 10,5 km/h (2 Bft)
03.04.2015 11:48 8,4 C 8,3 C 69 % 1020,3 hPa 0,0 l/m 2 min 0 min 486 W/m 8,4 km/h (2 Bft)
03.04.2015 11:50 8,5 C 8,3 C 69 % 1020,3 hPa 0,0 l/m 2 min 0 min 484 W/m 6,3 km/h (2 Bft)
03.04.2015 11:52 8,6 C 8,3 C 68 % 1020,3 hPa 0,0 l/m 2 min 0 min 452 W/m 10,5 km/h (2 Bft)
03.04.2015 11:54 8,6 C 8,9 C 68 % 1020,3 hPa 0,0 l/m 2 min 0 min 482 W/m 10,5 km/h (2 Bft)
03.04.2015 11:56 8,6 C 8,9 C 67 % 1020,3 hPa 0,0 l/m 2 min 0 min 464 W/m 6,3 km/h (2 Bft)
03.04.2015 11:58 8,7 C 8,3 C 68 % 1020,2 hPa 0,0 l/m 2 min 0 min 436 W/m 6,3 km/h (2 Bft)
03.04.2015 12:00 8,7 C 8,3 C 68 % 1020,3 hPa 0,0 l/m 2 min 0 min 452 W/m 12,6 km/h (3 Bft)
03.04.2015 12:02 8,7 C 8,9 C 68 % 1020,2 hPa 0,0 l/m 2 min 0 min 494 W/m 16,7 km/h (3 Bft)
03.04.2015 12:06 8,8 C 8,3 C 68 % 1020,2 hPa 0,0 l/m 2 min 0 min 491 W/m 8,4 km/h (2 Bft)
03.04.2015 12:08 8,8 C 8,3 C 68 % 1020,2 hPa 0,0 l/m 2 min 0 min 507 W/m 6,3 km/h (2 Bft)
03.04.2015 12:10 8,9 C 8,9 C 68 % 1020,2 hPa 0,0 l/m 2 min 0 min 568 W/m 12,6 km/h (3 Bft)
03.04.2015 12:12 9,0 C 8,9 C 68 % 1020,2 hPa 0,0 l/m 2 min 0 min 596 W/m 16,7 km/h (3 Bft)
03.04.2015 12:14 9,1 C 8,9 C 66 % 1020,2 hPa 0,0 l/m 2 min 0 min 627 W/m 16,7 km/h (3 Bft)
03.04.2015 12:16 9,1 C 8,9 C 66 % 1020,1 hPa 0,0 l/m 2 min 0 min 619 W/m 10,5 km/h (2 Bft)
03.04.2015 12:18 9,2 C 8,9 C 66 % 1020,0 hPa 0,0 l/m 2 min 0 min 618 W/m 10,5 km/h (2 Bft)
03.04.2015 12:20 9,3 C 8,9 C 66 % 1020,0 hPa 0,0 l/m 2 min 0 min 622 W/m 16,7 km/h (3 Bft)
03.04.2015 12:22 9,3 C 8,9 C 65 % 1020,0 hPa 0,0 l/m 2 min 0 min 604 W/m 14,6 km/h (3 Bft)
03.04.2015 12:24 9,4 C 8,9 C 64 % 1019,9 hPa 0,0 l/m 2 min 0 min 602 W/m 10,5 km/h (2 Bft)
03.04.2015 12:26 9,4 C 8,9 C 65 % 1019,9 hPa 0,0 l/m 2 min 0 min 613 W/m 12,6 km/h (3 Bft)
03.04.2015 12:28 9,6 C 9,4 C 66 % 1019,9 hPa 0,0 l/m 2 min 0 min 660 W/m 27,2 km/h (4 Bft)
03.04.2015 12:30 9,7 C 9,4 C 65 % 1019,9 hPa 0,0 l/m 2 min 0 min 706 W/m 10,5 km/h (2 Bft)
03.04.2015 12:32 9,8 C 9,4 C 63 % 1019,8 hPa 0,0 l/m 2 min 0 min 707 W/m 8,4 km/h (2 Bft)
03.04.2015 12:34 9,9 C 10,0 C 62 % 1019,7 hPa 0,0 l/m 2 min 0 min 725 W/m 8,4 km/h (2 Bft)
03.04.2015 12:36 10,1 C 10,0 C 63 % 1019,8 hPa 0,0 l/m 2 min 0 min 726 W/m 16,7 km/h (3 Bft)
03.04.2015 12:38 10,2 C 10,0 C 62 % 1019,8 hPa 0,0 l/m 2 min 0 min 740 W/m 14,6 km/h (3 Bft)
03.04.2015 12:40 10,3 C 10,6 C 61 % 1019,7 hPa 0,0 l/m 2 min 0 min 730 W/m 16,7 km/h (3 Bft)
03.04.2015 12:42 10,4 C 10,6 C 60 % 1019,7 hPa 0,0 l/m 2 min 0 min 694 W/m 6,3 km/h (2 Bft)
03.04.2015 12:44 10,4 C 10,0 C 60 % 1019,7 hPa 0,0 l/m 2 min 0 min 652 W/m 10,5 km/h (2 Bft)
03.04.2015 12:46 10,5 C 10,0 C 61 % 1019,6 hPa 0,0 l/m 2 min 0 min 602 W/m 6,3 km/h (2 Bft)
03.04.2015 12:48 10,6 C 10,0 C 61 % 1019,6 hPa 0,0 l/m 2 min 0 min 635 W/m 12,6 km/h (3 Bft)
03.04.2015 12:50 10,6 C 10,0 C 59 % 1019,6 hPa 0,0 l/m 2 min 0 min 612 W/m 10,5 km/h (2 Bft)
03.04.2015 12:52 10,6 C 10,0 C 59 % 1019,6 hPa 0,0 l/m 2 min 0 min 537 W/m 8,4 km/h (2 Bft)
03.04.2015 12:54 10,6 C 9,4 C 58 % 1019,5 hPa 0,0 l/m 2 min 0 min 463 W/m 6,3 km/h (2 Bft)
03.04.2015 12:56 10,6 C 9,4 C 58 % 1019,5 hPa 0,0 l/m 2 min 0 min 432 W/m 6,3 km/h (2 Bft)
03.04.2015 12:58 10,6 C 9,4 C 57 % 1019,5 hPa 0,0 l/m 2 min 0 min 410 W/m 12,6 km/h (3 Bft)
03.04.2015 13:00 10,6 C 10,0 C 57 % 1019,5 hPa 0,0 l/m 2 min 0 min 396 W/m 14,6 km/h (3 Bft)
03.04.2015 13:02 10,6 C 10,0 C 57 % 1019,6 hPa 0,0 l/m 2 min 0 min 384 W/m 18,8 km/h (3 Bft)
03.04.2015 13:04 10,6 C 10,0 C 55 % 1019,5 hPa 0,0 l/m 2 min 0 min 381 W/m 16,7 km/h (3 Bft)
03.04.2015 13:06 10,5 C 10,0 C 55 % 1019,5 hPa 0,0 l/m 2 min 0 min 383 W/m 14,6 km/h (3 Bft)
03.04.2015 13:08 10,4 C 10,0 C 56 % 1019,5 hPa 0,0 l/m 2 min 0 min 378 W/m 14,6 km/h (3 Bft)
03.04.2015 13:10 10,4 C 10,0 C 57 % 1019,5 hPa 0,0 l/m 2 min 0 min 400 W/m 14,6 km/h (3 Bft)
03.04.2015 13:12 10,3 C 10,0 C 57 % 1019,5 hPa 0,0 l/m 2 min 0 min 406 W/m 14,6 km/h (3 Bft)
03.04.2015 13:14 10,2 C 10,0 C 58 % 1019,5 hPa 0,0 l/m 2 min 0 min 405 W/m 8,4 km/h (2 Bft)
03.04.2015 13:16 10,2 C 10,0 C 59 % 1019,4 hPa 0,0 l/m 2 min 0 min 415 W/m 16,7 km/h (3 Bft)
03.04.2015 13:18 10,2 C 10,0 C 58 % 1019,5 hPa 0,0 l/m 2 min 0 min 412 W/m 14,6 km/h (3 Bft)
03.04.2015 13:20 10,1 C 10,0 C 58 % 1019,5 hPa 0,0 l/m 2 min 0 min 418 W/m 10,5 km/h (2 Bft)
03.04.2015 13:22 10,1 C 10,0 C 59 % 1019,5 hPa 0,0 l/m 2 min 0 min 409 W/m 16,7 km/h (3 Bft)
03.04.2015 13:24 10,1 C 10,0 C 60 % 1019,4 hPa 0,0 l/m 2 min 0 min 404 W/m 16,7 km/h (3 Bft)
03.04.2015 13:26 10,1 C 10,0 C 60 % 1019,4 hPa 0,0 l/m 2 min 0 min 412 W/m 12,6 km/h (3 Bft)
03.04.2015 13:28 10,1 C 10,0 C 61 % 1019,4 hPa 0,0 l/m 2 min 0 min 433 W/m 14,6 km/h (3 Bft)
03.04.2015 13:30 10,1 C 10,6 C 61 % 1019,4 hPa 0,0 l/m 2 min 0 min 474 W/m 10,5 km/h (2 Bft)
03.04.2015 13:32 10,1 C 10,0 C 60 % 1019,3 hPa 0,0 l/m 2 min 0 min 513 W/m 8,4 km/h (2 Bft)
03.04.2015 13:34 10,1 C 10,6 C 60 % 1019,4 hPa 0,0 l/m 2 min 0 min 504 W/m 12,6 km/h (3 Bft)
03.04.2015 13:36 10,2 C 10,6 C 60 % 1019,3 hPa 0,0 l/m 2 min 0 min 487 W/m 12,6 km/h (3 Bft)
03.04.2015 13:38 10,2 C 11,1 C 60 % 1019,3 hPa 0,0 l/m 2 min 0 min 489 W/m 10,5 km/h (2 Bft)
03.04.2015 13:40 10,3 C 11,1 C 60 % 1019,3 hPa 0,0 l/m 2 min 0 min 476 W/m 8,4 km/h (2 Bft)
03.04.2015 13:42 10,3 C 11,1 C 58 % 1019,3 hPa 0,0 l/m 2 min 0 min 476 W/m 6,3 km/h (2 Bft)
03.04.2015 13:44 10,3 C 10,6 C 59 % 1019,2 hPa 0,0 l/m 2 min 0 min 480 W/m 12,6 km/h (3 Bft)
03.04.2015 13:46 10,4 C 10,6 C 59 % 1019,2 hPa 0,0 l/m 2 min 0 min 470 W/m 14,6 km/h (3 Bft)
03.04.2015 13:48 10,4 C 10,6 C 58 % 1019,2 hPa 0,0 l/m 2 min 0 min 444 W/m 23,0 km/h (4 Bft)
03.04.2015 13:50 10,4 C 10,6 C 58 % 1019,1 hPa 0,0 l/m 2 min 0 min 427 W/m 14,6 km/h (3 Bft)
03.04.2015 13:52 10,4 C 10,6 C 58 % 1019,2 hPa 0,0 l/m 2 min 0 min 431 W/m 14,6 km/h (3 Bft)
03.04.2015 13:54 10,4 C 10,6 C 58 % 1019,2 hPa 0,0 l/m 2 min 0 min 424 W/m 10,5 km/h (2 Bft)
03.04.2015 13:56 10,4 C 10,6 C 58 % 1019,1 hPa 0,0 l/m 2 min 0 min 432 W/m 10,5 km/h (2 Bft)
03.04.2015 13:58 10,4 C 10,6 C 58 % 1019,0 hPa 0,0 l/m 2 min 0 min 458 W/m 6,3 km/h (2 Bft)
03.04.2015 14:00 10,4 C 10,6 C 57 % 1019,0 hPa 0,0 l/m 2 min 0 min 473 W/m 18,8 km/h (3 Bft)
03.04.2015 14:02 10,4 C 10,6 C 57 % 1019,0 hPa 0,0 l/m 2 min 0 min 468 W/m 14,6 km/h (3 Bft)
03.04.2015 14:04 10,4 C 11,1 C 58 % 1019,0 hPa 0,0 l/m 2 min 0 min 486 W/m 10,5 km/h (2 Bft)
03.04.2015 14:06 10,4 C 11,1 C 58 % 1019,0 hPa 0,0 l/m 2 min 0 min 493 W/m 10,5 km/h (2 Bft)
03.04.2015 14:08 10,4 C 11,1 C 58 % 1019,0 hPa 0,0 l/m 2 min 0 min 496 W/m 12,6 km/h (3 Bft)
03.04.2015 14:10 10,4 C 11,1 C 59 % 1018,9 hPa 0,0 l/m 2 min 0 min 498 W/m 14,6 km/h (3 Bft)
03.04.2015 14:12 10,5 C 11,1 C 60 % 1018,9 hPa 0,0 l/m 2 min 0 min 499 W/m 16,7 km/h (3 Bft)
03.04.2015 14:14 10,5 C 11,1 C 58 % 1018,9 hPa 0,0 l/m 2 min 0 min 503 W/m 14,6 km/h (3 Bft)
03.04.2015 14:16 10,6 C 11,7 C 58 % 1018,9 hPa 0,0 l/m 2 min 0 min 491 W/m 12,6 km/h (3 Bft)
03.04.2015 14:18 10,6 C 11,7 C 58 % 1018,9 hPa 0,0 l/m 2 min 0 min 492 W/m 12,6 km/h (3 Bft)
03.04.2015 14:20 10,6 C 11,7 C 58 % 1018,9 hPa 0,0 l/m 2 min 0 min 497 W/m 10,5 km/h (2 Bft)
03.04.2015 14:22 10,6 C 11,1 C 58 % 1018,8 hPa 0,0 l/m 2 min 0 min 475 W/m 14,6 km/h (3 Bft)
03.04.2015 14:24 10,6 C 11,1 C 57 % 1018,8 hPa 0,0 l/m 2 min 0 min 475 W/m 12,6 km/h (3 Bft)
03.04.2015 14:26 10,7 C 11,1 C 59 % 1018,7 hPa 0,0 l/m 2 min 0 min 488 W/m 10,5 km/h (2 Bft)
03.04.2015 14:28 10,7 C 11,1 C 59 % 1018,7 hPa 0,0 l/m 2 min 0 min 454 W/m 14,6 km/h (3 Bft)
03.04.2015 14:30 10,7 C 11,1 C 57 % 1018,7 hPa 0,0 l/m 2 min 0 min 437 W/m 18,8 km/h (3 Bft)
03.04.2015 14:32 10,8 C 11,1 C 58 % 1018,6 hPa 0,0 l/m 2 min 0 min 397 W/m 14,6 km/h (3 Bft)
03.04.2015 14:34 10,8 C 11,1 C 59 % 1018,7 hPa 0,0 l/m 2 min 0 min 381 W/m 14,6 km/h (3 Bft)
03.04.2015 14:36 10,8 C 10,6 C 57 % 1018,6 hPa 0,0 l/m 2 min 0 min 375 W/m 8,4 km/h (2 Bft)
03.04.2015 14:38 10,8 C 10,6 C 57 % 1018,6 hPa 0,0 l/m 2 min 0 min 376 W/m 10,5 km/h (2 Bft)
03.04.2015 14:40 10,8 C 10,6 C 57 % 1018,5 hPa 0,0 l/m 2 min 0 min 382 W/m 8,4 km/h (2 Bft)
03.04.2015 14:42 10,8 C 10,6 C 57 % 1018,4 hPa 0,0 l/m 2 min 0 min 389 W/m 6,3 km/h (2 Bft)
03.04.2015 14:44 10,8 C 11,1 C 57 % 1018,4 hPa 0,0 l/m 2 min 0 min 384 W/m 10,5 km/h (2 Bft)
03.04.2015 14:46 10,8 C 11,1 C 59 % 1018,4 hPa 0,0 l/m 2 min 0 min 386 W/m 14,6 km/h (3 Bft)
03.04.2015 14:48 10,8 C 11,1 C 58 % 1018,3 hPa 0,0 l/m 2 min 0 min 385 W/m 14,6 km/h (3 Bft)
03.04.2015 14:50 10,8 C 11,1 C 58 % 1018,3 hPa 0,0 l/m 2 min 0 min 392 W/m 12,6 km/h (3 Bft)
03.04.2015 14:52 10,8 C 11,7 C 57 % 1018,2 hPa 0,0 l/m 2 min 0 min 417 W/m 14,6 km/h (3 Bft)
03.04.2015 14:54 10,8 C 11,7 C 57 % 1018,3 hPa 0,0 l/m 2 min 0 min 442 W/m 16,7 km/h (3 Bft)
03.04.2015 14:56 10,9 C 11,7 C 58 % 1018,2 hPa 0,0 l/m 2 min 0 min 462 W/m 10,5 km/h (2 Bft)
03.04.2015 14:58 10,9 C 12,2 C 58 % 1018,2 hPa 0,0 l/m 2 min 0 min 472 W/m 12,6 km/h (3 Bft)
03.04.2015 15:00 10,9 C 12,2 C 57 % 1018,2 hPa 0,0 l/m 2 min 0 min 453 W/m 10,5 km/h (2 Bft)
03.04.2015 15:02 10,9 C 12,2 C 57 % 1018,1 hPa 0,0 l/m 2 min 0 min 420 W/m 4,2 km/h (1 Bft)
03.04.2015 15:04 10,9 C 12,2 C 57 % 1018,1 hPa 0,0 l/m 2 min 0 min 404 W/m 6,3 km/h (2 Bft)
03.04.2015 15:06 11,0 C 12,2 C 57 % 1018,0 hPa 0,0 l/m 2 min 0 min 429 W/m 12,6 km/h (3 Bft)
03.04.2015 15:08 11,0 C 12,8 C 57 % 1018,0 hPa 0,0 l/m 2 min 0 min 463 W/m 10,5 km/h (2 Bft)
03.04.2015 15:10 11,1 C 12,8 C 57 % 1018,0 hPa 0,0 l/m 2 min 0 min 496 W/m 6,3 km/h (2 Bft)
03.04.2015 15:12 11,2 C 13,9 C 59 % 1018,0 hPa 0,0 l/m 2 min 0 min 522 W/m 16,7 km/h (3 Bft)
03.04.2015 15:14 11,2 C 14,4 C 58 % 1018,0 hPa 0,0 l/m 2 min 0 min 548 W/m 16,7 km/h (3 Bft)
03.04.2015 15:16 11,3 C 14,4 C 58 % 1018,0 hPa 0,0 l/m 2 min 0 min 562 W/m 12,6 km/h (3 Bft)
03.04.2015 15:18 11,3 C 15,0 C 56 % 1018,0 hPa 0,0 l/m 2 min 0 min 541 W/m 12,6 km/h (3 Bft)
03.04.2015 15:20 11,3 C 14,4 C 55 % 1018,0 hPa 0,0 l/m 2 min 0 min 490 W/m 10,5 km/h (2 Bft)
03.04.2015 15:22 11,4 C 14,4 C 56 % 1018,0 hPa 0,0 l/m 2 min 0 min 474 W/m 23,0 km/h (4 Bft)
03.04.2015 15:24 11,4 C 13,9 C 56 % 1018,0 hPa 0,0 l/m 2 min 0 min 445 W/m 18,8 km/h (3 Bft)
03.04.2015 15:26 11,4 C 13,9 C 56 % 1018,0 hPa 0,0 l/m 2 min 0 min 435 W/m 4,2 km/h (1 Bft)
03.04.2015 15:28 11,4 C 13,9 C 56 % 1018,0 hPa 0,0 l/m 2 min 0 min 437 W/m 10,5 km/h (2 Bft)
03.04.2015 15:30 11,5 C 13,9 C 56 % 1017,9 hPa 0,0 l/m 2 min 0 min 428 W/m 8,4 km/h (2 Bft)
03.04.2015 15:32 11,5 C 12,8 C 55 % 1017,8 hPa 0,0 l/m 2 min 0 min 407 W/m 14,6 km/h (3 Bft)
03.04.2015 15:34 11,5 C 12,8 C 55 % 1017,8 hPa 0,0 l/m 2 min 0 min 396 W/m 12,6 km/h (3 Bft)
03.04.2015 15:36 11,5 C 12,8 C 56 % 1017,7 hPa 0,0 l/m 2 min 0 min 398 W/m 10,5 km/h (2 Bft)
03.04.2015 15:38 11,5 C 12,2 C 56 % 1017,6 hPa 0,0 l/m 2 min 0 min 397 W/m 12,6 km/h (3 Bft)
03.04.2015 15:40 11,5 C 12,8 C 57 % 1017,7 hPa 0,0 l/m 2 min 0 min 401 W/m 12,6 km/h (3 Bft)
03.04.2015 15:42 11,4 C 12,8 C 57 % 1017,6 hPa 0,0 l/m 2 min 0 min 412 W/m 10,5 km/h (2 Bft)
03.04.2015 15:44 11,4 C 12,8 C 56 % 1017,6 hPa 0,0 l/m 2 min 0 min 419 W/m 12,6 km/h (3 Bft)
03.04.2015 15:46 11,5 C 12,8 C 57 % 1017,6 hPa 0,0 l/m 2 min 0 min 412 W/m 6,3 km/h (2 Bft)
03.04.2015 15:48 11,5 C 12,8 C 56 % 1017,5 hPa 0,0 l/m 2 min 0 min 407 W/m 10,5 km/h (2 Bft)
03.04.2015 15:50 11,5 C 12,2 C 56 % 1017,5 hPa 0,0 l/m 2 min 0 min 400 W/m 8,4 km/h (2 Bft)
03.04.2015 15:52 11,5 C 12,8 C 57 % 1017,5 hPa 0,0 l/m 2 min 0 min 396 W/m 12,6 km/h (3 Bft)
03.04.2015 15:54 11,6 C 12,8 C 57 % 1017,5 hPa 0,0 l/m 2 min 0 min 395 W/m 12,6 km/h (3 Bft)
03.04.2015 15:56 11,6 C 12,8 C 56 % 1017,4 hPa 0,0 l/m 2 min 0 min 394 W/m 10,5 km/h (2 Bft)
03.04.2015 15:58 11,6 C 12,8 C 57 % 1017,4 hPa 0,0 l/m 2 min 0 min 383 W/m 10,5 km/h (2 Bft)
03.04.2015 16:00 11,6 C 12,2 C 55 % 1017,4 hPa 0,0 l/m 2 min 0 min 376 W/m 8,4 km/h (2 Bft)
03.04.2015 16:02 11,6 C 12,2 C 53 % 1017,3 hPa 0,0 l/m 2 min 0 min 359 W/m 4,2 km/h (1 Bft)
03.04.2015 16:04 11,6 C 12,2 C 54 % 1017,3 hPa 0,0 l/m 2 min 0 min 353 W/m 6,3 km/h (2 Bft)
03.04.2015 16:06 11,6 C 12,2 C 54 % 1017,2 hPa 0,0 l/m 2 min 0 min 359 W/m 6,3 km/h (2 Bft)
03.04.2015 16:08 11,6 C 12,2 C 55 % 1017,2 hPa 0,0 l/m 2 min 0 min 358 W/m 6,3 km/h (2 Bft)
03.04.2015 16:10 11,6 C 12,2 C 55 % 1017,2 hPa 0,0 l/m 2 min 0 min 359 W/m 8,4 km/h (2 Bft)
03.04.2015 16:12 11,7 C 12,2 C 55 % 1017,2 hPa 0,0 l/m 2 min 0 min 356 W/m 12,6 km/h (3 Bft)
03.04.2015 16:14 11,7 C 12,2 C 54 % 1017,2 hPa 0,0 l/m 2 min 0 min 347 W/m 10,5 km/h (2 Bft)
03.04.2015 16:16 11,7 C 12,2 C 54 % 1017,2 hPa 0,0 l/m 2 min 0 min 336 W/m 10,5 km/h (2 Bft)
03.04.2015 16:18 11,6 C 11,7 C 53 % 1017,2 hPa 0,0 l/m 2 min 0 min 325 W/m 8,4 km/h (2 Bft)
03.04.2015 16:20 11,6 C 11,7 C 52 % 1017,2 hPa 0,0 l/m 2 min 0 min 314 W/m 4,2 km/h (1 Bft)
03.04.2015 16:22 11,6 C 11,7 C 53 % 1017,1 hPa 0,0 l/m 2 min 0 min 297 W/m 4,2 km/h (1 Bft)
03.04.2015 16:24 11,6 C 11,7 C 53 % 1017,0 hPa 0,0 l/m 2 min 0 min 285 W/m 6,3 km/h (2 Bft)
03.04.2015 16:26 11,6 C 11,7 C 53 % 1017,1 hPa 0,0 l/m 2 min 0 min 279 W/m 4,2 km/h (1 Bft)
03.04.2015 16:28 11,6 C 11,7 C 53 % 1017,0 hPa 0,0 l/m 2 min 0 min 271 W/m 8,4 km/h (2 Bft)
03.04.2015 16:30 11,6 C 11,1 C 52 % 1017,0 hPa 0,0 l/m 2 min 0 min 264 W/m 6,3 km/h (2 Bft)
03.04.2015 16:32 11,6 C 11,1 C 53 % 1017,0 hPa 0,0 l/m 2 min 0 min 264 W/m 6,3 km/h (2 Bft)
03.04.2015 16:34 11,6 C 11,1 C 54 % 1017,0 hPa 0,0 l/m 2 min 0 min 263 W/m 8,4 km/h (2 Bft)
03.04.2015 16:36 11,6 C 11,1 C 53 % 1017,0 hPa 0,0 l/m 2 min 0 min 258 W/m 8,4 km/h (2 Bft)
03.04.2015 16:38 11,6 C 11,1 C 54 % 1016,9 hPa 0,0 l/m 0 min 0 min 249 W/m 6,3 km/h (2 Bft)
03.04.2015 16:40 11,6 C 11,1 C 55 % 1016,9 hPa 0,0 l/m 0 min 0 min 244 W/m 6,3 km/h (2 Bft)
03.04.2015 16:42 11,6 C 11,1 C 55 % 1016,9 hPa 0,0 l/m 0 min 0 min 248 W/m 8,4 km/h (2 Bft)
03.04.2015 16:44 11,6 C 11,1 C 55 % 1016,9 hPa 0,0 l/m 2 min 0 min 253 W/m 8,4 km/h (2 Bft)
03.04.2015 16:46 11,5 C 11,1 C 54 % 1016,9 hPa 0,0 l/m 2 min 0 min 254 W/m 6,3 km/h (2 Bft)
03.04.2015 16:48 11,5 C 11,1 C 54 % 1016,9 hPa 0,0 l/m 2 min 0 min 252 W/m 4,2 km/h (1 Bft)
03.04.2015 16:50 11,4 C 11,1 C 54 % 1016,9 hPa 0,0 l/m 2 min 0 min 253 W/m 6,3 km/h (2 Bft)
03.04.2015 16:52 11,4 C 11,1 C 54 % 1016,9 hPa 0,0 l/m 2 min 0 min 255 W/m 8,4 km/h (2 Bft)
03.04.2015 16:54 11,4 C 11,1 C 55 % 1016,9 hPa 0,0 l/m 2 min 0 min 258 W/m 6,3 km/h (2 Bft)
03.04.2015 16:56 11,4 C 11,1 C 54 % 1016,9 hPa 0,0 l/m 2 min 0 min 260 W/m 8,4 km/h (2 Bft)
03.04.2015 16:58 11,4 C 10,6 C 54 % 1016,9 hPa 0,0 l/m 2 min 0 min 265 W/m 12,6 km/h (3 Bft)
03.04.2015 17:00 11,3 C 10,6 C 55 % 1016,9 hPa 0,0 l/m 2 min 0 min 271 W/m 12,6 km/h (3 Bft)
03.04.2015 17:02 11,2 C 10,6 C 54 % 1016,8 hPa 0,0 l/m 2 min 0 min 270 W/m 10,5 km/h (2 Bft)
03.04.2015 17:04 11,2 C 10,6 C 55 % 1016,8 hPa 0,0 l/m 2 min 0 min 272 W/m 10,5 km/h (2 Bft)
03.04.2015 17:06 11,1 C 10,6 C 56 % 1016,7 hPa 0,0 l/m 2 min 0 min 267 W/m 6,3 km/h (2 Bft)
03.04.2015 17:08 11,1 C 10,6 C 55 % 1016,8 hPa 0,0 l/m 2 min 0 min 256 W/m 12,6 km/h (3 Bft)
03.04.2015 17:10 11,0 C 10,6 C 54 % 1016,8 hPa 0,0 l/m 2 min 0 min 250 W/m 12,6 km/h (3 Bft)
03.04.2015 17:12 10,9 C 10,6 C 54 % 1016,7 hPa 0,0 l/m 2 min 0 min 242 W/m 10,5 km/h (2 Bft)
03.04.2015 17:14 10,8 C 10,6 C 54 % 1016,7 hPa 0,0 l/m 2 min 0 min 234 W/m 8,4 km/h (2 Bft)
03.04.2015 17:16 10,8 C 10,6 C 55 % 1016,7 hPa 0,0 l/m 2 min 0 min 226 W/m 10,5 km/h (2 Bft)
03.04.2015 17:18 10,8 C 10,6 C 55 % 1016,7 hPa 0,0 l/m 2 min 0 min 218 W/m 12,6 km/h (3 Bft)
03.04.2015 17:20 10,7 C 10,6 C 54 % 1016,7 hPa 0,0 l/m 2 min 0 min 212 W/m 6,3 km/h (2 Bft)
03.04.2015 17:22 10,7 C 10,6 C 56 % 1016,6 hPa 0,0 l/m 2 min 0 min 208 W/m 4,2 km/h (1 Bft)
03.04.2015 17:24 10,7 C 10,6 C 56 % 1016,6 hPa 0,0 l/m 2 min 0 min 206 W/m 4,2 km/h (1 Bft)
03.04.2015 17:26 10,7 C 10,6 C 54 % 1016,6 hPa 0,0 l/m 2 min 0 min 205 W/m 4,2 km/h (1 Bft)
03.04.2015 17:28 10,7 C 10,6 C 55 % 1016,6 hPa 0,0 l/m 0 min 0 min 199 W/m 4,2 km/h (1 Bft)
03.04.2015 17:30 10,8 C 10,6 C 56 % 1016,6 hPa 0,0 l/m 0 min 0 min 193 W/m 6,3 km/h (2 Bft)
03.04.2015 17:32 10,8 C 10,6 C 56 % 1016,6 hPa 0,0 l/m 0 min 0 min 184 W/m 6,3 km/h (2 Bft)
03.04.2015 17:34 10,8 C 10,6 C 56 % 1016,6 hPa 0,0 l/m 0 min 0 min 172 W/m 8,4 km/h (2 Bft)
03.04.2015 17:36 10,8 C 10,6 C 56 % 1016,6 hPa 0,0 l/m 0 min 0 min 161 W/m 8,4 km/h (2 Bft)
03.04.2015 17:38 10,8 C 10,6 C 55 % 1016,6 hPa 0,0 l/m 0 min 0 min 151 W/m 8,4 km/h (2 Bft)
03.04.2015 17:40 10,8 C 10,0 C 56 % 1016,6 hPa 0,0 l/m 0 min 0 min 142 W/m 8,4 km/h (2 Bft)
03.04.2015 17:42 10,8 C 10,0 C 55 % 1016,6 hPa 0,0 l/m 0 min 0 min 135 W/m 8,4 km/h (2 Bft)
03.04.2015 17:44 10,8 C 10,0 C 54 % 1016,6 hPa 0,0 l/m 0 min 0 min 132 W/m 8,4 km/h (2 Bft)
03.04.2015 17:46 10,8 C 10,0 C 53 % 1016,6 hPa 0,0 l/m 0 min 0 min 129 W/m 4,2 km/h (1 Bft)
03.04.2015 17:48 10,7 C 10,0 C 54 % 1016,6 hPa 0,0 l/m 0 min 0 min 128 W/m 2,1 km/h (1 Bft)
03.04.2015 17:50 10,7 C 10,0 C 55 % 1016,6 hPa 0,0 l/m 0 min 0 min 129 W/m 4,2 km/h (1 Bft)
03.04.2015 17:52 10,7 C 10,0 C 55 % 1016,6 hPa 0,0 l/m 0 min 0 min 135 W/m 4,2 km/h (1 Bft)
03.04.2015 17:54 10,7 C 10,0 C 56 % 1016,6 hPa 0,0 l/m 0 min 0 min 142 W/m 6,3 km/h (2 Bft)
03.04.2015 17:56 10,7 C 10,0 C 56 % 1016,6 hPa 0,0 l/m 0 min 0 min 147 W/m 6,3 km/h (2 Bft)
03.04.2015 17:58 10,7 C 10,0 C 56 % 1016,6 hPa 0,0 l/m 0 min 0 min 153 W/m 4,2 km/h (1 Bft)
03.04.2015 18:00 10,7 C 10,0 C 55 % 1016,5 hPa 0,0 l/m 0 min 0 min 158 W/m 6,3 km/h (2 Bft)
03.04.2015 18:02 10,7 C 10,0 C 54 % 1016,5 hPa 0,0 l/m 2 min 0 min 164 W/m 8,4 km/h (2 Bft)
03.04.2015 18:06 10,7 C 10,0 C 55 % 1016,5 hPa 0,0 l/m 2 min 0 min 167 W/m 8,4 km/h (2 Bft)
03.04.2015 18:08 10,7 C 10,6 C 55 % 1016,5 hPa 0,0 l/m 2 min 0 min 178 W/m 6,3 km/h (2 Bft)
03.04.2015 18:10 10,7 C 10,0 C 54 % 1016,5 hPa 0,0 l/m 2 min 0 min 175 W/m 6,3 km/h (2 Bft)
03.04.2015 18:12 10,7 C 10,0 C 55 % 1016,5 hPa 0,0 l/m 2 min 0 min 159 W/m 6,3 km/h (2 Bft)
03.04.2015 18:14 10,7 C 10,0 C 55 % 1016,5 hPa 0,0 l/m 2 min 0 min 146 W/m 6,3 km/h (2 Bft)
03.04.2015 18:16 10,7 C 10,0 C 56 % 1016,5 hPa 0,0 l/m 0 min 0 min 133 W/m 4,2 km/h (1 Bft)
03.04.2015 18:18 10,7 C 10,0 C 56 % 1016,5 hPa 0,0 l/m 0 min 0 min 121 W/m 6,3 km/h (2 Bft)
03.04.2015 18:20 10,7 C 10,0 C 56 % 1016,5 hPa 0,0 l/m 0 min 0 min 112 W/m 8,4 km/h (2 Bft)
03.04.2015 18:22 10,7 C 10,0 C 56 % 1016,4 hPa 0,0 l/m 0 min 0 min 104 W/m 10,5 km/h (2 Bft)
03.04.2015 18:24 10,7 C 10,0 C 57 % 1016,5 hPa 0,0 l/m 0 min 0 min 100 W/m 10,5 km/h (2 Bft)
03.04.2015 18:26 10,7 C 9,4 C 56 % 1016,5 hPa 0,0 l/m 0 min 0 min 96 W/m 10,5 km/h (2 Bft)
03.04.2015 18:28 10,7 C 9,4 C 57 % 1016,4 hPa 0,0 l/m 0 min 0 min 92 W/m 8,4 km/h (2 Bft)
03.04.2015 18:30 10,6 C 9,4 C 56 % 1016,5 hPa 0,0 l/m 0 min 0 min 90 W/m 8,4 km/h (2 Bft)
03.04.2015 18:32 10,6 C 9,4 C 56 % 1016,5 hPa 0,0 l/m 0 min 0 min 90 W/m 8,4 km/h (2 Bft)
03.04.2015 18:34 10,6 C 9,4 C 57 % 1016,4 hPa 0,0 l/m 0 min 0 min 91 W/m 8,4 km/h (2 Bft)
03.04.2015 18:36 10,6 C 9,4 C 56 % 1016,5 hPa 0,0 l/m 0 min 0 min 91 W/m 8,4 km/h (2 Bft)
03.04.2015 18:38 10,6 C 9,4 C 56 % 1016,4 hPa 0,0 l/m 0 min 0 min 91 W/m 4,2 km/h (1 Bft)
03.04.2015 18:40 10,5 C 9,4 C 57 % 1016,4 hPa 0,0 l/m 0 min 0 min 91 W/m 6,3 km/h (2 Bft)
03.04.2015 18:42 10,5 C 9,4 C 58 % 1016,5 hPa 0,0 l/m 0 min 0 min 90 W/m 6,3 km/h (2 Bft)
03.04.2015 18:44 10,5 C 9,4 C 58 % 1016,5 hPa 0,0 l/m 0 min 0 min 88 W/m 10,5 km/h (2 Bft)
03.04.2015 18:46 10,5 C 9,4 C 58 % 1016,4 hPa 0,0 l/m 0 min 0 min 85 W/m 12,6 km/h (3 Bft)
03.04.2015 18:48 10,4 C 9,4 C 58 % 1016,4 hPa 0,0 l/m 0 min 0 min 82 W/m 4,2 km/h (1 Bft)
03.04.2015 18:50 10,4 C 9,4 C 57 % 1016,4 hPa 0,0 l/m 0 min 0 min 81 W/m 4,2 km/h (1 Bft)
03.04.2015 18:52 10,4 C 9,4 C 57 % 1016,3 hPa 0,0 l/m 0 min 0 min 78 W/m 6,3 km/h (2 Bft)
03.04.2015 18:54 10,4 C 9,4 C 57 % 1016,4 hPa 0,0 l/m 0 min 0 min 77 W/m 6,3 km/h (2 Bft)
03.04.2015 18:56 10,4 C 9,4 C 58 % 1016,3 hPa 0,0 l/m 0 min 0 min 75 W/m 6,3 km/h (2 Bft)
03.04.2015 18:58 10,4 C 8,9 C 58 % 1016,4 hPa 0,0 l/m 0 min 0 min 72 W/m 6,3 km/h (2 Bft)
03.04.2015 19:00 10,4 C 8,9 C 58 % 1016,4 hPa 0,0 l/m 0 min 0 min 65 W/m 6,3 km/h (2 Bft)
03.04.2015 19:02 10,3 C 8,9 C 57 % 1016,4 hPa 0,0 l/m 0 min 0 min 58 W/m 4,2 km/h (1 Bft)
03.04.2015 19:04 10,3 C 8,9 C 57 % 1016,4 hPa 0,0 l/m 0 min 0 min 50 W/m 4,2 km/h (1 Bft)
03.04.2015 19:06 10,3 C 8,9 C 58 % 1016,3 hPa 0,0 l/m 0 min 0 min 44 W/m 4,2 km/h (1 Bft)
03.04.2015 19:08 10,3 C 8,9 C 58 % 1016,3 hPa 0,0 l/m 0 min 0 min 42 W/m 6,3 km/h (2 Bft)
03.04.2015 19:10 10,3 C 8,9 C 58 % 1016,3 hPa 0,0 l/m 0 min 0 min 40 W/m 4,2 km/h (1 Bft)
03.04.2015 19:12 10,3 C 8,9 C 58 % 1016,3 hPa 0,0 l/m 0 min 0 min 39 W/m 4,2 km/h (1 Bft)
03.04.2015 19:14 10,2 C 8,3 C 59 % 1016,3 hPa 0,0 l/m 0 min 0 min 35 W/m 8,4 km/h (2 Bft)
03.04.2015 19:16 10,2 C 8,3 C 59 % 1016,3 hPa 0,0 l/m 0 min 0 min 33 W/m 4,2 km/h (1 Bft)
03.04.2015 19:18 10,2 C 8,3 C 59 % 1016,2 hPa 0,0 l/m 0 min 0 min 32 W/m 4,2 km/h (1 Bft)
03.04.2015 19:20 10,2 C 8,3 C 58 % 1016,2 hPa 0,0 l/m 0 min 0 min 31 W/m 6,3 km/h (2 Bft)
03.04.2015 19:22 10,2 C 8,3 C 58 % 1016,2 hPa 0,0 l/m 0 min 0 min 30 W/m 4,2 km/h (1 Bft)
03.04.2015 19:24 10,1 C 8,3 C 58 % 1016,2 hPa 0,0 l/m 0 min 0 min 30 W/m 2,1 km/h (1 Bft)
03.04.2015 19:26 10,1 C 8,3 C 58 % 1016,3 hPa 0,0 l/m 0 min 0 min 30 W/m 2,1 km/h (1 Bft)
03.04.2015 19:28 10,1 C 7,8 C 58 % 1016,2 hPa 0,0 l/m 0 min 0 min 30 W/m 4,2 km/h (1 Bft)
03.04.2015 19:30 10,1 C 7,8 C 58 % 1016,2 hPa 0,0 l/m 0 min 0 min 30 W/m 4,2 km/h (1 Bft)
03.04.2015 19:32 10,0 C 7,8 C 59 % 1016,2 hPa 0,0 l/m 0 min 0 min 30 W/m 4,2 km/h (1 Bft)
03.04.2015 19:34 10,0 C 7,8 C 59 % 1016,2 hPa 0,0 l/m 0 min 0 min 26 W/m 4,2 km/h (1 Bft)
03.04.2015 19:36 10,0 C 7,8 C 59 % 1016,2 hPa 0,0 l/m 0 min 0 min 24 W/m 6,3 km/h (2 Bft)
03.04.2015 19:38 10,0 C 8,3 C 59 % 1016,2 hPa 0,0 l/m 0 min 0 min 21 W/m 4,2 km/h (1 Bft)
03.04.2015 19:40 9,9 C 8,3 C 59 % 1016,3 hPa 0,0 l/m 0 min 0 min 18 W/m 6,3 km/h (2 Bft)
03.04.2015 19:42 9,9 C 7,8 C 59 % 1016,3 hPa 0,0 l/m 0 min 0 min 17 W/m 2,1 km/h (1 Bft)
03.04.2015 19:44 9,9 C 7,8 C 60 % 1016,3 hPa 0,0 l/m 0 min 0 min 14 W/m 4,2 km/h (1 Bft)
03.04.2015 19:46 9,9 C 7,8 C 60 % 1016,3 hPa 0,0 l/m 0 min 0 min 12 W/m 2,1 km/h (1 Bft)
03.04.2015 19:48 9,9 C 7,8 C 60 % 1016,3 hPa 0,0 l/m 0 min 0 min 12 W/m 2,1 km/h (1 Bft)
03.04.2015 19:50 9,8 C 7,2 C 60 % 1016,3 hPa 0,0 l/m 0 min 0 min 11 W/m 2,1 km/h (1 Bft)
03.04.2015 19:52 9,8 C 7,2 C 60 % 1016,4 hPa 0,0 l/m 0 min 0 min 11 W/m 4,2 km/h (1 Bft)
03.04.2015 19:54 9,8 C 7,2 C 60 % 1016,4 hPa 0,0 l/m 0 min 0 min 9 W/m 4,2 km/h (1 Bft)
03.04.2015 19:56 9,8 C 7,2 C 60 % 1016,3 hPa 0,0 l/m 0 min 0 min 9 W/m 2,1 km/h (1 Bft)
03.04.2015 19:58 9,8 C 7,2 C 59 % 1016,3 hPa 0,0 l/m 0 min 0 min 7 W/m 4,2 km/h (1 Bft)
03.04.2015 20:00 9,7 C 7,2 C 59 % 1016,3 hPa 0,0 l/m 0 min 0 min 7 W/m 4,2 km/h (1 Bft)
03.04.2015 20:02 9,7 C 7,2 C 60 % 1016,3 hPa 0,0 l/m 0 min 0 min 7 W/m 4,2 km/h (1 Bft)
03.04.2015 20:04 9,7 C 7,2 C 60 % 1016,3 hPa 0,0 l/m 0 min 0 min 7 W/m 2,1 km/h (1 Bft)
03.04.2015 20:06 9,7 C 7,2 C 60 % 1016,3 hPa 0,0 l/m 0 min 0 min 7 W/m 2,1 km/h (1 Bft)
03.04.2015 20:08 9,7 C 7,2 C 60 % 1016,3 hPa 0,0 l/m 0 min 0 min 6 W/m 4,2 km/h (1 Bft)
03.04.2015 20:10 9,6 C 7,2 C 60 % 1016,4 hPa 0,0 l/m 0 min 0 min 5 W/m 2,1 km/h (1 Bft)
03.04.2015 20:12 9,6 C 7,2 C 60 % 1016,4 hPa 0,0 l/m 0 min 0 min 0 W/m 4,2 km/h (1 Bft)
03.04.2015 20:14 9,6 C 7,2 C 60 % 1016,5 hPa 0,0 l/m 0 min 0 min 0 W/m 4,2 km/h (1 Bft)
03.04.2015 20:16 9,6 C 7,2 C 60 % 1016,4 hPa 0,0 l/m 0 min 0 min 0 W/m 4,2 km/h (1 Bft)
03.04.2015 20:18 9,5 C 7,8 C 61 % 1016,3 hPa 0,0 l/m 0 min 0 min 0 W/m 4,2 km/h (1 Bft)
03.04.2015 20:20 9,5 C 7,8 C 61 % 1016,4 hPa 0,0 l/m 0 min 0 min 0 W/m 6,3 km/h (2 Bft)
03.04.2015 20:22 9,5 C 7,8 C 60 % 1016,4 hPa 0,0 l/m 0 min 0 min 0 W/m 4,2 km/h (1 Bft)
03.04.2015 20:24 9,4 C 7,8 C 59 % 1016,4 hPa 0,0 l/m 0 min 0 min 0 W/m 6,3 km/h (2 Bft)
03.04.2015 20:26 9,4 C 7,8 C 59 % 1016,5 hPa 0,0 l/m 0 min 0 min 0 W/m 6,3 km/h (2 Bft)
03.04.2015 20:28 9,4 C 7,2 C 60 % 1016,5 hPa 0,0 l/m 0 min 0 min 0 W/m 6,3 km/h (2 Bft)
03.04.2015 20:30 9,4 C 7,2 C 60 % 1016,5 hPa 0,0 l/m 0 min 0 min 0 W/m 6,3 km/h (2 Bft)
03.04.2015 20:32 9,4 C 7,2 C 61 % 1016,5 hPa 0,0 l/m 0 min 0 min 0 W/m 6,3 km/h (2 Bft)
03.04.2015 20:34 9,3 C 7,2 C 61 % 1016,4 hPa 0,0 l/m 0 min 0 min 0 W/m 4,2 km/h (1 Bft)
03.04.2015 20:36 9,3 C 7,2 C 61 % 1016,5 hPa 0,0 l/m 0 min 0 min 0 W/m 4,2 km/h (1 Bft)
03.04.2015 20:38 9,3 C 7,2 C 61 % 1016,4 hPa 0,0 l/m 0 min 0 min 0 W/m 6,3 km/h (2 Bft)
03.04.2015 20:40 9,3 C 7,2 C 62 % 1016,5 hPa 0,0 l/m 0 min 0 min 0 W/m 4,2 km/h (1 Bft)
03.04.2015 20:42 9,2 C 7,2 C 62 % 1016,5 hPa 0,0 l/m 0 min 0 min 0 W/m 6,3 km/h (2 Bft)
03.04.2015 20:44 9,2 C 6,7 C 62 % 1016,5 hPa 0,0 l/m 0 min 0 min 0 W/m 6,3 km/h (2 Bft)
03.04.2015 20:46 9,2 C 6,7 C 62 % 1016,5 hPa 0,0 l/m 0 min 0 min 0 W/m 4,2 km/h (1 Bft)
03.04.2015 20:48 9,2 C 6,7 C 62 % 1016,5 hPa 0,0 l/m 0 min 0 min 0 W/m 4,2 km/h (1 Bft)
03.04.2015 20:50 9,2 C 6,7 C 62 % 1016,5 hPa 0,0 l/m 0 min 0 min 0 W/m 6,3 km/h (2 Bft)
03.04.2015 20:52 9,2 C 6,7 C 62 % 1016,4 hPa 0,0 l/m 0 min 0 min 0 W/m 6,3 km/h (2 Bft)
03.04.2015 20:54 9,1 C 7,2 C 63 % 1016,5 hPa 0,0 l/m 0 min 0 min 0 W/m 6,3 km/h (2 Bft)
03.04.2015 20:56 9,1 C 7,2 C 63 % 1016,5 hPa 0,0 l/m 0 min 0 min 0 W/m 6,3 km/h (2 Bft)
03.04.2015 20:58 9,1 C 7,2 C 63 % 1016,5 hPa 0,0 l/m 0 min 0 min 0 W/m 6,3 km/h (2 Bft)
03.04.2015 21:00 9,0 C 7,2 C 63 % 1016,5 hPa 0,0 l/m 0 min 0 min 0 W/m 8,4 km/h (2 Bft)
03.04.2015 21:02 9,0 C 7,2 C 63 % 1016,5 hPa 0,0 l/m 0 min 0 min 0 W/m 8,4 km/h (2 Bft)
03.04.2015 21:04 8,9 C 7,2 C 63 % 1016,5 hPa 0,0 l/m 0 min 0 min 0 W/m 8,4 km/h (2 Bft)
03.04.2015 21:06 8,9 C 7,2 C 63 % 1016,5 hPa 0,0 l/m 0 min 0 min 0 W/m 6,3 km/h (2 Bft)
03.04.2015 21:08 8,9 C 7,2 C 63 % 1016,5 hPa 0,0 l/m 0 min 0 min 0 W/m 8,4 km/h (2 Bft)
03.04.2015 21:10 8,9 C 7,2 C 64 % 1016,5 hPa 0,0 l/m 0 min 0 min 0 W/m 8,4 km/h (2 Bft)
03.04.2015 21:12 8,9 C 7,2 C 64 % 1016,5 hPa 0,0 l/m 0 min 0 min 0 W/m 8,4 km/h (2 Bft)
03.04.2015 21:14 8,8 C 7,2 C 64 % 1016,5 hPa 0,0 l/m 0 min 0 min 0 W/m 8,4 km/h (2 Bft)
03.04.2015 21:16 8,8 C 7,2 C 64 % 1016,5 hPa 0,0 l/m 0 min 0 min 0 W/m 8,4 km/h (2 Bft)
03.04.2015 21:18 8,8 C 7,2 C 65 % 1016,5 hPa 0,0 l/m 0 min 0 min 0 W/m 6,3 km/h (2 Bft)
03.04.2015 21:20 8,8 C 7,2 C 65 % 1016,5 hPa 0,0 l/m 0 min 0 min 0 W/m 6,3 km/h (2 Bft)
03.04.2015 21:22 8,8 C 7,2 C 65 % 1016,5 hPa 0,0 l/m 0 min 0 min 0 W/m 6,3 km/h (2 Bft)
03.04.2015 21:24 8,8 C 7,2 C 65 % 1016,5 hPa 0,0 l/m 0 min 0 min 0 W/m 8,4 km/h (2 Bft)
03.04.2015 21:26 8,8 C 7,2 C 65 % 1016,5 hPa 0,0 l/m 0 min 0 min 0 W/m 6,3 km/h (2 Bft)
03.04.2015 21:28 8,7 C 7,2 C 65 % 1016,5 hPa 0,0 l/m 0 min 0 min 0 W/m 6,3 km/h (2 Bft)
03.04.2015 21:30 8,7 C 7,2 C 65 % 1016,5 hPa 0,0 l/m 0 min 0 min 0 W/m 6,3 km/h (2 Bft)
03.04.2015 21:32 8,7 C 7,2 C 65 % 1016,6 hPa 0,0 l/m 0 min 0 min 0 W/m 8,4 km/h (2 Bft)
03.04.2015 21:34 8,7 C 7,2 C 66 % 1016,5 hPa 0,0 l/m 0 min 0 min 0 W/m 10,5 km/h (2 Bft)
03.04.2015 21:36 8,7 C 7,2 C 66 % 1016,5 hPa 0,0 l/m 0 min 0 min 0 W/m 10,5 km/h (2 Bft)
03.04.2015 21:38 8,7 C 7,2 C 66 % 1016,6 hPa 0,0 l/m 0 min 0 min 0 W/m 8,4 km/h (2 Bft)
03.04.2015 21:40 8,6 C 7,2 C 66 % 1016,5 hPa 0,0 l/m 0 min 0 min 0 W/m 8,4 km/h (2 Bft)
03.04.2015 21:42 8,6 C 7,2 C 66 % 1016,5 hPa 0,0 l/m 0 min 0 min 0 W/m 8,4 km/h (2 Bft)
03.04.2015 21:44 8,6 C 7,2 C 65 % 1016,4 hPa 0,0 l/m 0 min 0 min 0 W/m 10,5 km/h (2 Bft)
03.04.2015 21:46 8,6 C 7,2 C 65 % 1016,5 hPa 0,0 l/m 0 min 0 min 0 W/m 8,4 km/h (2 Bft)
03.04.2015 21:48 8,6 C 7,2 C 65 % 1016,5 hPa 0,0 l/m 0 min 0 min 0 W/m 8,4 km/h (2 Bft)
03.04.2015 21:50 8,5 C 7,2 C 65 % 1016,6 hPa 0,0 l/m 0 min 0 min 0 W/m 8,4 km/h (2 Bft)
03.04.2015 21:52 8,5 C 7,2 C 65 % 1016,6 hPa 0,0 l/m 0 min 0 min 0 W/m 8,4 km/h (2 Bft)
03.04.2015 21:54 8,5 C 7,2 C 65 % 1016,6 hPa 0,0 l/m 0 min 0 min 0 W/m 6,3 km/h (2 Bft)
03.04.2015 21:56 8,5 C 7,2 C 65 % 1016,6 hPa 0,0 l/m 0 min 0 min 0 W/m 6,3 km/h (2 Bft)
03.04.2015 21:58 8,5 C 7,2 C 65 % 1016,6 hPa 0,0 l/m 0 min 0 min 0 W/m 6,3 km/h (2 Bft)
03.04.2015 22:00 8,5 C 7,2 C 66 % 1016,6 hPa 0,0 l/m 0 min 0 min 0 W/m 6,3 km/h (2 Bft)
03.04.2015 22:02 8,5 C 7,2 C 66 % 1016,6 hPa 0,0 l/m 0 min 0 min 0 W/m 6,3 km/h (2 Bft)
03.04.2015 22:04 8,5 C 7,2 C 66 % 1016,6 hPa 0,0 l/m 0 min 0 min 0 W/m 8,4 km/h (2 Bft)
03.04.2015 22:06 8,5 C 6,7 C 66 % 1016,6 hPa 0,0 l/m 0 min 0 min 0 W/m 6,3 km/h (2 Bft)
03.04.2015 22:08 8,4 C 6,7 C 66 % 1016,6 hPa 0,0 l/m 0 min 0 min 0 W/m 8,4 km/h (2 Bft)
03.04.2015 22:10 8,4 C 6,7 C 67 % 1016,6 hPa 0,0 l/m 0 min 0 min 0 W/m 6,3 km/h (2 Bft)
03.04.2015 22:12 8,4 C 6,7 C 67 % 1016,6 hPa 0,0 l/m 0 min 0 min 0 W/m 8,4 km/h (2 Bft)
03.04.2015 22:14 8,4 C 6,7 C 67 % 1016,6 hPa 0,0 l/m 0 min 0 min 0 W/m 6,3 km/h (2 Bft)
03.04.2015 22:16 8,4 C 6,7 C 67 % 1016,6 hPa 0,0 l/m 0 min 0 min 0 W/m 6,3 km/h (2 Bft)
03.04.2015 22:18 8,4 C 6,7 C 66 % 1016,6 hPa 0,0 l/m 0 min 0 min 0 W/m 8,4 km/h (2 Bft)
03.04.2015 22:20 8,4 C 6,7 C 67 % 1016,7 hPa 0,0 l/m 0 min 0 min 0 W/m 8,4 km/h (2 Bft)
03.04.2015 22:22 8,4 C 6,7 C 67 % 1016,6 hPa 0,0 l/m 0 min 0 min 0 W/m 8,4 km/h (2 Bft)
03.04.2015 22:24 8,3 C 6,7 C 67 % 1016,7 hPa 0,0 l/m 0 min 0 min 0 W/m 8,4 km/h (2 Bft)
03.04.2015 22:26 8,3 C 6,7 C 67 % 1016,6 hPa 0,0 l/m 0 min 0 min 0 W/m 6,3 km/h (2 Bft)
03.04.2015 22:28 8,3 C 6,7 C 67 % 1016,6 hPa 0,0 l/m 0 min 0 min 0 W/m 6,3 km/h (2 Bft)
03.04.2015 22:30 8,3 C 6,7 C 67 % 1016,7 hPa 0,0 l/m 0 min 0 min 0 W/m 8,4 km/h (2 Bft)
03.04.2015 22:32 8,3 C 6,7 C 67 % 1016,6 hPa 0,0 l/m 0 min 0 min 0 W/m 8,4 km/h (2 Bft)
03.04.2015 22:34 8,3 C 6,7 C 67 % 1016,6 hPa 0,0 l/m 0 min 0 min 0 W/m 8,4 km/h (2 Bft)
03.04.2015 22:36 8,3 C 6,7 C 67 % 1016,6 hPa 0,0 l/m 0 min 0 min 0 W/m 8,4 km/h (2 Bft)
03.04.2015 22:38 8,3 C 6,7 C 67 % 1016,6 hPa 0,0 l/m 0 min 0 min 0 W/m 10,5 km/h (2 Bft)
03.04.2015 22:40 8,3 C 6,7 C 67 % 1016,6 hPa 0,0 l/m 0 min 0 min 0 W/m 10,5 km/h (2 Bft)
03.04.2015 22:42 8,2 C 6,7 C 67 % 1016,7 hPa 0,0 l/m 0 min 0 min 0 W/m 8,4 km/h (2 Bft)
03.04.2015 22:44 8,2 C 6,7 C 67 % 1016,6 hPa 0,0 l/m 0 min 0 min 0 W/m 8,4 km/h (2 Bft)
03.04.2015 22:46 8,2 C 6,7 C 67 % 1016,6 hPa 0,0 l/m 0 min 0 min 0 W/m 10,5 km/h (2 Bft)
03.04.2015 22:48 8,2 C 6,7 C 67 % 1016,6 hPa 0,0 l/m 0 min 0 min 0 W/m 10,5 km/h (2 Bft)
03.04.2015 22:50 8,2 C 6,7 C 67 % 1016,6 hPa 0,0 l/m 0 min 0 min 0 W/m 10,5 km/h (2 Bft)
03.04.2015 22:52 8,2 C 6,7 C 66 % 1016,6 hPa 0,0 l/m 0 min 0 min 0 W/m 10,5 km/h (2 Bft)
03.04.2015 22:54 8,2 C 6,7 C 66 % 1016,6 hPa 0,0 l/m 0 min 0 min 0 W/m 8,4 km/h (2 Bft)
03.04.2015 22:56 8,2 C 6,7 C 66 % 1016,6 hPa 0,0 l/m 0 min 0 min 0 W/m 8,4 km/h (2 Bft)
03.04.2015 22:58 8,2 C 6,7 C 66 % 1016,6 hPa 0,0 l/m 0 min 0 min 0 W/m 10,5 km/h (2 Bft)
03.04.2015 23:00 8,1 C 6,7 C 66 % 1016,6 hPa 0,0 l/m 0 min 0 min 0 W/m 10,5 km/h (2 Bft)
03.04.2015 23:02 8,2 C 6,7 C 66 % 1016,6 hPa 0,0 l/m 0 min 0 min 0 W/m 10,5 km/h (2 Bft)
03.04.2015 23:04 8,1 C 6,7 C 66 % 1016,6 hPa 0,0 l/m 0 min 0 min 0 W/m 10,5 km/h (2 Bft)
03.04.2015 23:06 8,1 C 6,7 C 66 % 1016,6 hPa 0,0 l/m 0 min 0 min 0 W/m 8,4 km/h (2 Bft)
03.04.2015 23:08 8,1 C 6,7 C 66 % 1016,7 hPa 0,0 l/m 0 min 0 min 0 W/m 10,5 km/h (2 Bft)
03.04.2015 23:10 8,1 C 6,7 C 66 % 1016,7 hPa 0,0 l/m 0 min 0 min 0 W/m 10,5 km/h (2 Bft)
03.04.2015 23:12 8,1 C 6,7 C 66 % 1016,7 hPa 0,0 l/m 0 min 0 min 0 W/m 8,4 km/h (2 Bft)
03.04.2015 23:14 8,1 C 6,7 C 67 % 1016,7 hPa 0,0 l/m 0 min 0 min 0 W/m 12,6 km/h (3 Bft)
03.04.2015 23:16 8,1 C 6,7 C 67 % 1016,7 hPa 0,0 l/m 0 min 0 min 0 W/m 10,5 km/h (2 Bft)
03.04.2015 23:18 8,1 C 6,7 C 67 % 1016,7 hPa 0,0 l/m 0 min 0 min 0 W/m 10,5 km/h (2 Bft)
03.04.2015 23:20 8,1 C 6,7 C 67 % 1016,7 hPa 0,0 l/m 0 min 0 min 0 W/m 10,5 km/h (2 Bft)
03.04.2015 23:22 8,1 C 6,7 C 67 % 1016,7 hPa 0,0 l/m 0 min 0 min 0 W/m 10,5 km/h (2 Bft)
03.04.2015 23:24 8,1 C 6,7 C 67 % 1016,6 hPa 0,0 l/m 0 min 0 min 0 W/m 10,5 km/h (2 Bft)
03.04.2015 23:26 8,1 C 6,7 C 67 % 1016,6 hPa 0,0 l/m 0 min 0 min 0 W/m 12,6 km/h (3 Bft)
03.04.2015 23:28 8,1 C 6,7 C 67 % 1016,6 hPa 0,0 l/m 0 min 0 min 0 W/m 8,4 km/h (2 Bft)
03.04.2015 23:30 8,1 C 6,7 C 68 % 1016,6 hPa 0,0 l/m 0 min 0 min 0 W/m 8,4 km/h (2 Bft)
03.04.2015 23:32 8,1 C 6,7 C 67 % 1016,6 hPa 0,0 l/m 0 min 0 min 0 W/m 8,4 km/h (2 Bft)
03.04.2015 23:34 8,0 C 6,7 C 68 % 1016,6 hPa 0,0 l/m 0 min 0 min 0 W/m 8,4 km/h (2 Bft)
03.04.2015 23:36 8,0 C 6,7 C 68 % 1016,6 hPa 0,0 l/m 0 min 0 min 0 W/m 8,4 km/h (2 Bft)
03.04.2015 23:38 8,0 C 6,7 C 68 % 1016,6 hPa 0,0 l/m 0 min 0 min 0 W/m 10,5 km/h (2 Bft)
03.04.2015 23:40 8,0 C 6,7 C 68 % 1016,6 hPa 0,0 l/m 0 min 0 min 0 W/m 8,4 km/h (2 Bft)
03.04.2015 23:42 8,0 C 6,7 C 69 % 1016,5 hPa 0,0 l/m 0 min 0 min 0 W/m 8,4 km/h (2 Bft)
03.04.2015 23:44 8,0 C 6,7 C 69 % 1016,4 hPa 0,0 l/m 0 min 0 min 0 W/m 8,4 km/h (2 Bft)
03.04.2015 23:46 8,0 C 6,7 C 69 % 1016,4 hPa 0,0 l/m 0 min 0 min 0 W/m 8,4 km/h (2 Bft)
03.04.2015 23:48 7,9 C 6,7 C 69 % 1016,5 hPa 0,0 l/m 0 min 0 min 0 W/m 8,4 km/h (2 Bft)
03.04.2015 23:50 7,9 C 6,7 C 69 % 1016,4 hPa 0,0 l/m 0 min 0 min 0 W/m 8,4 km/h (2 Bft)
03.04.2015 23:52 7,9 C 6,7 C 69 % 1016,4 hPa 0,0 l/m 0 min 0 min 0 W/m 8,4 km/h (2 Bft)
03.04.2015 23:54 7,9 C 6,7 C 69 % 1016,5 hPa 0,0 l/m 0 min 0 min 0 W/m 6,3 km/h (2 Bft)
03.04.2015 23:56 7,9 C 6,7 C 69 % 1016,4 hPa 0,0 l/m 0 min 0 min 0 W/m 10,5 km/h (2 Bft)
03.04.2015 23:58 7,9 C 6,7 C 70 % 1016,4 hPa 0,0 l/m 0 min 0 min 0 W/m 10,5 km/h (2 Bft)
_ Min-Zeit 01:26 01:12 16:20 19:18 - - - - 00:24
Minimum _ 2,1 C 0,0 C 52 % 1016,2 hPa - - - - 2,1 km/h (1 Bft)
_ Max-Zeit 16:10 15:18 02:10 01:22 00:00 07:28 00:00 12:38 12:28
Maximum _ 11,7 C 15,0 C 91 % 1022,9 hPa 0,0 l/m 2 min 0 min 740 W/m 27,2 km/h
S (4 Bft)
Durchschnitt _ 7,1 C 6,3 C 73 % 1019,7 hPa #0,0 l/m #10:04 h #0 min. 301 W/m 8,5 km/h (2 Bft)
© 2015 W. Hausmann